AAL34 KJFK-EGLL
Flight info
| Callsign | AAL34 |
|---|---|
| Flight time | 6h 12m |
| Altitude | 39000 |
| Route | GREKI DCT JUDDS DCT MARTN DCT TOPPS N635A RIKAL/M085F400 DCT 53N050W 54N040W 55N030W 55N020W DCT DOGAL DCT BEXET/N0493F410 DCT ENJEX DCT AVZAC DCT INFEC DCT JETZI DCT AMFUL DCT ORZEB/N0457F230 P2 SIRIC |
| Aircraft | B789/H-SDE1E2E3FGHIJ2J3J4J5M1RWXY/LB1D1 |
Departure
| Time | 2026-05-07 08:34 |
|---|---|
| Airport | John F. Kennedy International Airport (KJFK) |
Arrival
| Time | 2026-05-07 14:46 |
|---|---|
| Airport | London Heathrow Airport (EGLL) |
| Time | Latitude | Longitude | Altitude | Speed | Heading |
|---|---|---|---|---|---|
| 2026-05-07 07:56 | 40.64017 | -73.78065 | 28 ft | 0 kts | 247° |
| 2026-05-07 08:13 | 40.64020 | -73.78057 | 27 ft | 4 kts | 246° |
| 2026-05-07 08:13 | 40.64032 | -73.78025 | 26 ft | 4 kts | 237° |
| 2026-05-07 08:14 | 40.64048 | -73.77998 | 27 ft | 4 kts | 212° |
| 2026-05-07 08:14 | 40.64068 | -73.77991 | 27 ft | 2 kts | 151° |
| 2026-05-07 08:14 | 40.64069 | -73.77992 | 27 ft | 10 kts | 150° |
| 2026-05-07 08:22 | 40.64064 | -73.77988 | 26 ft | 2 kts | 150° |
| 2026-05-07 08:22 | 40.64054 | -73.77981 | 28 ft | 0 kts | 150° |
| 2026-05-07 08:23 | 40.64051 | -73.77979 | 28 ft | 1 kts | 150° |
| 2026-05-07 08:23 | 40.64039 | -73.77970 | 28 ft | 3 kts | 152° |
| 2026-05-07 08:23 | 40.64015 | -73.77958 | 28 ft | 4 kts | 161° |
| 2026-05-07 08:23 | 40.63981 | -73.77948 | 28 ft | 6 kts | 172° |
| 2026-05-07 08:24 | 40.63936 | -73.77940 | 28 ft | 7 kts | 173° |
| 2026-05-07 08:24 | 40.63880 | -73.77932 | 28 ft | 9 kts | 173° |
| 2026-05-07 08:24 | 40.63825 | -73.77923 | 28 ft | 7 kts | 173° |
| 2026-05-07 08:24 | 40.63773 | -73.77915 | 28 ft | 8 kts | 173° |
| 2026-05-07 08:25 | 40.63712 | -73.77905 | 28 ft | 10 kts | 173° |
| 2026-05-07 08:25 | 40.63659 | -73.77897 | 28 ft | 5 kts | 173° |
| 2026-05-07 08:25 | 40.63622 | -73.77890 | 28 ft | 6 kts | 171° |
| 2026-05-07 08:25 | 40.63582 | -73.77869 | 28 ft | 6 kts | 145° |
| 2026-05-07 08:26 | 40.63555 | -73.77826 | 27 ft | 1 kts | 122° |
| 2026-05-07 08:26 | 40.63550 | -73.77815 | 27 ft | 4 kts | 122° |
| 2026-05-07 08:26 | 40.63530 | -73.77772 | 27 ft | 5 kts | 122° |
| 2026-05-07 08:27 | 40.63509 | -73.77734 | 27 ft | 3 kts | 144° |
| 2026-05-07 08:27 | 40.63498 | -73.77732 | 28 ft | 1 kts | 176° |
| 2026-05-07 08:27 | 40.63483 | -73.77733 | 29 ft | 3 kts | 188° |
| 2026-05-07 08:27 | 40.63455 | -73.77746 | 29 ft | 5 kts | 204° |
| 2026-05-07 08:28 | 40.63417 | -73.77776 | 32 ft | 4 kts | 216° |
| 2026-05-07 08:28 | 40.63405 | -73.77788 | 32 ft | 4 kts | 218° |
| 2026-05-07 08:28 | 40.63368 | -73.77826 | 31 ft | 9 kts | 215° |
| 2026-05-07 08:28 | 40.63327 | -73.77832 | 32 ft | 4 kts | 150° |
| 2026-05-07 08:29 | 40.63304 | -73.77795 | 33 ft | 8 kts | 124° |
| 2026-05-07 08:29 | 40.63265 | -73.77714 | 32 ft | 13 kts | 120° |
| 2026-05-07 08:29 | 40.63211 | -73.77592 | 34 ft | 17 kts | 121° |
| 2026-05-07 08:29 | 40.63165 | -73.77491 | 35 ft | 13 kts | 121° |
| 2026-05-07 08:30 | 40.63124 | -73.77401 | 34 ft | 14 kts | 121° |
| 2026-05-07 08:30 | 40.63083 | -73.77311 | 33 ft | 8 kts | 121° |
| 2026-05-07 08:30 | 40.63075 | -73.77293 | 33 ft | 1 kts | 121° |
| 2026-05-07 08:30 | 40.63068 | -73.77277 | 33 ft | 3 kts | 121° |
| 2026-05-07 08:31 | 40.63052 | -73.77241 | 33 ft | 6 kts | 121° |
| 2026-05-07 08:31 | 40.63024 | -73.77179 | 31 ft | 10 kts | 121° |
| 2026-05-07 08:31 | 40.62992 | -73.77109 | 29 ft | 0 kts | 121° |
| 2026-05-07 08:31 | 40.62981 | -73.77091 | 28 ft | 5 kts | 136° |
| 2026-05-07 08:32 | 40.62959 | -73.77083 | 28 ft | 1 kts | 191° |
| 2026-05-07 08:32 | 40.62950 | -73.77087 | 28 ft | 3 kts | 196° |
| 2026-05-07 08:32 | 40.62924 | -73.77101 | 29 ft | 5 kts | 208° |
| 2026-05-07 08:32 | 40.62886 | -73.77133 | 29 ft | 8 kts | 213° |
| 2026-05-07 08:33 | 40.62831 | -73.77188 | 29 ft | 11 kts | 236° |
| 2026-05-07 08:33 | 40.62844 | -73.77273 | 30 ft | 10 kts | 300° |
| 2026-05-07 08:33 | 40.62883 | -73.77358 | 32 ft | 11 kts | 301° |
| 2026-05-07 08:33 | 40.62939 | -73.77482 | 33 ft | 31 kts | 301° |
| 2026-05-07 08:34 | 40.63162 | -73.77978 | 33 ft | 97 kts | 301° |
| 2026-05-07 08:34 | 40.63624 | -73.78985 | 33 ft | 157 kts | 302° |
| 2026-05-07 08:34 | 40.64254 | -73.80370 | 460 ft | 177 kts | 300° |
| 2026-05-07 08:34 | 40.64816 | -73.81721 | 1835 ft | 161 kts | 302° |
| 2026-05-07 08:35 | 40.65372 | -73.83141 | 2309 ft | 189 kts | 300° |
| 2026-05-07 08:35 | 40.66029 | -73.84808 | 2656 ft | 220 kts | 300° |
| 2026-05-07 08:35 | 40.66764 | -73.86598 | 3522 ft | 222 kts | 299° |
| 2026-05-07 08:35 | 40.67557 | -73.88395 | 4248 ft | 238 kts | 299° |
| 2026-05-07 08:36 | 40.68451 | -73.90272 | 5234 ft | 241 kts | 299° |
| 2026-05-07 08:36 | 40.69393 | -73.92101 | 6404 ft | 242 kts | 298° |
| 2026-05-07 08:36 | 40.70405 | -73.93907 | 7352 ft | 249 kts | 300° |
| 2026-05-07 08:36 | 40.71475 | -73.95730 | 8275 ft | 255 kts | 300° |
| 2026-05-07 08:37 | 40.72639 | -73.97550 | 9180 ft | 268 kts | 309° |
| 2026-05-07 08:37 | 40.74284 | -73.98903 | 10032 ft | 291 kts | 328° |
| 2026-05-07 08:37 | 40.76386 | -73.99468 | 10488 ft | 334 kts | 354° |
| 2026-05-07 08:37 | 40.78782 | -73.98771 | 10789 ft | 376 kts | 20° |
| 2026-05-07 08:38 | 40.81051 | -73.96781 | 11034 ft | 408 kts | 37° |
| 2026-05-07 08:38 | 40.83167 | -73.94148 | 11566 ft | 423 kts | 44° |
| 2026-05-07 08:38 | 40.85110 | -73.91430 | 12376 ft | 427 kts | 45° |
| 2026-05-07 08:38 | 40.87239 | -73.88610 | 13008 ft | 438 kts | 40° |
| 2026-05-07 08:39 | 40.89526 | -73.85925 | 13785 ft | 443 kts | 39° |
| 2026-05-07 08:39 | 40.91834 | -73.83180 | 14474 ft | 449 kts | 40° |
| 2026-05-07 08:39 | 40.94108 | -73.80305 | 15161 ft | 456 kts | 41° |
| 2026-05-07 08:39 | 40.96373 | -73.77426 | 15831 ft | 461 kts | 40° |
| 2026-05-07 08:40 | 40.98737 | -73.74509 | 16503 ft | 466 kts | 39° |
| 2026-05-07 08:40 | 41.00324 | -73.72568 | 16929 ft | 471 kts | 39° |
| 2026-05-07 08:40 | 41.02725 | -73.69596 | 17618 ft | 476 kts | 39° |
| 2026-05-07 08:40 | 41.05939 | -73.65564 | 18396 ft | 485 kts | 39° |
| 2026-05-07 08:41 | 41.07605 | -73.63481 | 18773 ft | 487 kts | 38° |
| 2026-05-07 08:41 | 41.10906 | -73.59376 | 19501 ft | 495 kts | 38° |
| 2026-05-07 08:41 | 41.13423 | -73.56236 | 20022 ft | 500 kts | 38° |
| 2026-05-07 08:41 | 41.15138 | -73.54086 | 20378 ft | 504 kts | 38° |
| 2026-05-07 08:42 | 41.17699 | -73.50873 | 20888 ft | 509 kts | 38° |
| 2026-05-07 08:42 | 41.20287 | -73.47631 | 21390 ft | 514 kts | 38° |
| 2026-05-07 08:42 | 41.22909 | -73.44346 | 21856 ft | 521 kts | 38° |
| 2026-05-07 08:42 | 41.25516 | -73.41070 | 22318 ft | 526 kts | 38° |
| 2026-05-07 08:43 | 41.28181 | -73.37713 | 22812 ft | 530 kts | 37° |
| 2026-05-07 08:43 | 41.30876 | -73.34318 | 23256 ft | 535 kts | 37° |
| 2026-05-07 08:43 | 41.33591 | -73.30898 | 23660 ft | 540 kts | 37° |
| 2026-05-07 08:43 | 41.36314 | -73.27460 | 24064 ft | 541 kts | 37° |
| 2026-05-07 08:44 | 41.38942 | -73.24134 | 24490 ft | 545 kts | 37° |
| 2026-05-07 08:44 | 41.41710 | -73.20637 | 24741 ft | 551 kts | 37° |
| 2026-05-07 08:44 | 41.44495 | -73.17109 | 25138 ft | 554 kts | 37° |
| 2026-05-07 08:44 | 41.47296 | -73.13554 | 25488 ft | 557 kts | 37° |
| 2026-05-07 08:45 | 41.50113 | -73.09974 | 25837 ft | 561 kts | 37° |
| 2026-05-07 08:45 | 41.52943 | -73.06376 | 26172 ft | 564 kts | 37° |
| 2026-05-07 08:45 | 41.55795 | -73.02746 | 26504 ft | 567 kts | 37° |
| 2026-05-07 08:45 | 41.58656 | -72.99096 | 26833 ft | 571 kts | 37° |
| 2026-05-07 08:46 | 41.61534 | -72.95422 | 27177 ft | 574 kts | 37° |
| 2026-05-07 08:46 | 41.64423 | -72.91728 | 27591 ft | 573 kts | 37° |
| 2026-05-07 08:46 | 41.67183 | -72.88193 | 27911 ft | 576 kts | 36° |
| 2026-05-07 08:46 | 41.70090 | -72.84471 | 28217 ft | 579 kts | 36° |
| 2026-05-07 08:47 | 41.73003 | -72.80734 | 28536 ft | 583 kts | 36° |
| 2026-05-07 08:47 | 41.75941 | -72.76959 | 28747 ft | 587 kts | 36° |
| 2026-05-07 08:47 | 41.78895 | -72.73155 | 29037 ft | 590 kts | 36° |
| 2026-05-07 08:47 | 41.81860 | -72.69334 | 29302 ft | 592 kts | 36° |
| 2026-05-07 08:48 | 41.84825 | -72.65510 | 29568 ft | 595 kts | 36° |
| 2026-05-07 08:48 | 41.87822 | -72.61639 | 29821 ft | 598 kts | 36° |
| 2026-05-07 08:48 | 41.90816 | -72.57764 | 30079 ft | 600 kts | 36° |
| 2026-05-07 08:48 | 41.93834 | -72.53853 | 30252 ft | 603 kts | 36° |
| 2026-05-07 08:49 | 41.96858 | -72.49930 | 30482 ft | 605 kts | 36° |
| 2026-05-07 08:49 | 41.99887 | -72.45994 | 30671 ft | 607 kts | 36° |
| 2026-05-07 08:49 | 42.02929 | -72.42037 | 30900 ft | 609 kts | 36° |
| 2026-05-07 08:49 | 42.05978 | -72.38064 | 31111 ft | 611 kts | 36° |
| 2026-05-07 08:50 | 42.09038 | -72.34073 | 31289 ft | 613 kts | 36° |
| 2026-05-07 08:50 | 42.12096 | -72.30076 | 31547 ft | 613 kts | 36° |
| 2026-05-07 08:50 | 42.15113 | -72.26124 | 31856 ft | 612 kts | 35° |
| 2026-05-07 08:50 | 42.18201 | -72.22078 | 32244 ft | 609 kts | 35° |
| 2026-05-07 08:51 | 42.21197 | -72.18148 | 32549 ft | 608 kts | 35° |
| 2026-05-07 08:51 | 42.24230 | -72.14167 | 32841 ft | 609 kts | 35° |
| 2026-05-07 08:51 | 42.27267 | -72.10174 | 33065 ft | 610 kts | 35° |
| 2026-05-07 08:51 | 42.30303 | -72.06169 | 33356 ft | 609 kts | 35° |
| 2026-05-07 08:52 | 42.33333 | -72.02167 | 33651 ft | 609 kts | 34° |
| 2026-05-07 08:52 | 42.36357 | -71.98174 | 33924 ft | 608 kts | 34° |
| 2026-05-07 08:52 | 42.39380 | -71.94177 | 34250 ft | 607 kts | 34° |
| 2026-05-07 08:52 | 42.42405 | -71.90168 | 34342 ft | 610 kts | 34° |
| 2026-05-07 08:53 | 42.45424 | -71.86157 | 34707 ft | 607 kts | 34° |
| 2026-05-07 08:53 | 42.48429 | -71.82158 | 34986 ft | 605 kts | 34° |
| 2026-05-07 08:53 | 42.51434 | -71.78165 | 35258 ft | 604 kts | 34° |
| 2026-05-07 08:53 | 42.54428 | -71.74178 | 35512 ft | 603 kts | 34° |
| 2026-05-07 08:54 | 42.57324 | -71.70312 | 35766 ft | 603 kts | 35° |
| 2026-05-07 08:54 | 42.60311 | -71.66317 | 35990 ft | 602 kts | 34° |
| 2026-05-07 08:54 | 42.63288 | -71.62332 | 36243 ft | 601 kts | 34° |
| 2026-05-07 08:54 | 42.66263 | -71.58347 | 36475 ft | 600 kts | 34° |
| 2026-05-07 08:55 | 42.69227 | -71.54368 | 36703 ft | 598 kts | 34° |
| 2026-05-07 08:55 | 42.72183 | -71.50394 | 37059 ft | 596 kts | 35° |
| 2026-05-07 08:55 | 42.75088 | -71.46484 | 37316 ft | 594 kts | 35° |
| 2026-05-07 08:55 | 42.78026 | -71.42526 | 37554 ft | 593 kts | 35° |
| 2026-05-07 08:56 | 42.80952 | -71.38577 | 37787 ft | 592 kts | 35° |
| 2026-05-07 08:56 | 42.83870 | -71.34631 | 38013 ft | 591 kts | 35° |
| 2026-05-07 08:56 | 42.86793 | -71.30674 | 38256 ft | 590 kts | 35° |
| 2026-05-07 08:56 | 42.89699 | -71.26735 | 38615 ft | 586 kts | 36° |
| 2026-05-07 08:57 | 42.92582 | -71.22819 | 38819 ft | 585 kts | 37° |
| 2026-05-07 08:57 | 42.95468 | -71.18900 | 38810 ft | 585 kts | 37° |
| 2026-05-07 08:57 | 43.01111 | -71.11207 | 38800 ft | 578 kts | 37° |
| 2026-05-07 08:58 | 43.06791 | -71.03458 | 38798 ft | 575 kts | 37° |
| 2026-05-07 08:58 | 43.12438 | -70.95719 | 38796 ft | 574 kts | 37° |
| 2026-05-07 08:59 | 43.18086 | -70.87965 | 38790 ft | 575 kts | 37° |
| 2026-05-07 08:59 | 43.23739 | -70.80177 | 38820 ft | 577 kts | 37° |
| 2026-05-07 09:00 | 43.29400 | -70.72360 | 38823 ft | 578 kts | 37° |
| 2026-05-07 09:00 | 43.35067 | -70.64510 | 38812 ft | 578 kts | 38° |
| 2026-05-07 09:01 | 43.40616 | -70.56800 | 38814 ft | 574 kts | 38° |
| 2026-05-07 09:01 | 43.46224 | -70.48994 | 38806 ft | 574 kts | 38° |
| 2026-05-07 09:02 | 43.51824 | -70.41170 | 38809 ft | 573 kts | 39° |
| 2026-05-07 09:02 | 43.57391 | -70.33369 | 38794 ft | 570 kts | 38° |
| 2026-05-07 09:03 | 43.62975 | -70.25536 | 38815 ft | 574 kts | 38° |
| 2026-05-07 09:03 | 43.68554 | -70.17667 | 38820 ft | 571 kts | 39° |
| 2026-05-07 09:04 | 43.74101 | -70.09839 | 38812 ft | 569 kts | 39° |
| 2026-05-07 09:04 | 43.79632 | -70.02002 | 38830 ft | 569 kts | 39° |
| 2026-05-07 09:05 | 43.85118 | -69.94208 | 38839 ft | 567 kts | 39° |
| 2026-05-07 09:05 | 43.90623 | -69.86369 | 38838 ft | 567 kts | 39° |
| 2026-05-07 09:06 | 43.96014 | -69.78667 | 38845 ft | 567 kts | 40° |
| 2026-05-07 09:06 | 44.01481 | -69.70833 | 38815 ft | 563 kts | 40° |
| 2026-05-07 09:07 | 44.06915 | -69.63032 | 38810 ft | 563 kts | 40° |
| 2026-05-07 09:07 | 44.12296 | -69.55280 | 38816 ft | 564 kts | 40° |
| 2026-05-07 09:08 | 44.17716 | -69.47445 | 38783 ft | 560 kts | 40° |
| 2026-05-07 09:08 | 44.23113 | -69.39632 | 38768 ft | 559 kts | 40° |
| 2026-05-07 09:09 | 44.28510 | -69.31789 | 38783 ft | 559 kts | 41° |
| 2026-05-07 09:09 | 44.33884 | -69.23961 | 38775 ft | 557 kts | 41° |
| 2026-05-07 09:10 | 44.39243 | -69.16132 | 38772 ft | 558 kts | 41° |
| 2026-05-07 09:10 | 44.44611 | -69.08268 | 38777 ft | 559 kts | 41° |
| 2026-05-07 09:11 | 44.49950 | -69.00419 | 38775 ft | 555 kts | 41° |
| 2026-05-07 09:11 | 44.55270 | -68.92584 | 38772 ft | 554 kts | 41° |
| 2026-05-07 09:12 | 44.60540 | -68.84796 | 38767 ft | 555 kts | 42° |
| 2026-05-07 09:12 | 44.65845 | -68.76934 | 38770 ft | 553 kts | 42° |
| 2026-05-07 09:13 | 44.71130 | -68.69081 | 38767 ft | 553 kts | 42° |
| 2026-05-07 09:13 | 44.76413 | -68.61207 | 38766 ft | 552 kts | 42° |
| 2026-05-07 09:14 | 44.81687 | -68.53325 | 38765 ft | 553 kts | 42° |
| 2026-05-07 09:14 | 44.86962 | -68.45420 | 38765 ft | 555 kts | 42° |
| 2026-05-07 09:15 | 44.92249 | -68.37473 | 38758 ft | 554 kts | 43° |
| 2026-05-07 09:15 | 44.97506 | -68.29546 | 38757 ft | 552 kts | 43° |
| 2026-05-07 09:16 | 45.02751 | -68.21618 | 38745 ft | 552 kts | 43° |
| 2026-05-07 09:16 | 45.07992 | -68.13671 | 38759 ft | 552 kts | 43° |
| 2026-05-07 09:17 | 45.13138 | -68.05847 | 38755 ft | 551 kts | 43° |
| 2026-05-07 09:17 | 45.18351 | -67.97897 | 38749 ft | 550 kts | 43° |
| 2026-05-07 09:18 | 45.23564 | -67.89927 | 38754 ft | 552 kts | 44° |
| 2026-05-07 09:18 | 45.28734 | -67.81995 | 38742 ft | 551 kts | 44° |
| 2026-05-07 09:19 | 45.33942 | -67.73983 | 38729 ft | 553 kts | 45° |
| 2026-05-07 09:19 | 45.39002 | -67.65750 | 38741 ft | 553 kts | 45° |
| 2026-05-07 09:20 | 45.44081 | -67.57560 | 38741 ft | 550 kts | 47° |
| 2026-05-07 09:20 | 45.49096 | -67.49325 | 38730 ft | 550 kts | 46° |
| 2026-05-07 09:21 | 45.54139 | -67.41118 | 38728 ft | 550 kts | 47° |
| 2026-05-07 09:21 | 45.59141 | -67.32881 | 38728 ft | 549 kts | 46° |
| 2026-05-07 09:22 | 45.64148 | -67.24661 | 38723 ft | 548 kts | 47° |
| 2026-05-07 09:22 | 45.69143 | -67.16407 | 38720 ft | 549 kts | 47° |
| 2026-05-07 09:23 | 45.74111 | -67.08189 | 38711 ft | 549 kts | 47° |
| 2026-05-07 09:23 | 45.79089 | -66.99921 | 38676 ft | 547 kts | 47° |
| 2026-05-07 09:24 | 45.84070 | -66.91629 | 38707 ft | 549 kts | 47° |
| 2026-05-07 09:24 | 45.89058 | -66.83295 | 38696 ft | 551 kts | 48° |
| 2026-05-07 09:25 | 45.93976 | -66.75058 | 38694 ft | 550 kts | 48° |
| 2026-05-07 09:25 | 45.98950 | -66.66700 | 38689 ft | 550 kts | 48° |
| 2026-05-07 09:26 | 46.03915 | -66.58332 | 38682 ft | 549 kts | 48° |
| 2026-05-07 09:26 | 46.08855 | -66.49981 | 38686 ft | 548 kts | 48° |
| 2026-05-07 09:27 | 46.13797 | -66.41602 | 38676 ft | 548 kts | 48° |
| 2026-05-07 09:28 | 46.20356 | -66.30440 | 38667 ft | 547 kts | 49° |
| 2026-05-07 09:28 | 46.25265 | -66.22058 | 38661 ft | 546 kts | 49° |
| 2026-05-07 09:29 | 46.30166 | -66.13665 | 38658 ft | 547 kts | 49° |
| 2026-05-07 09:29 | 46.35069 | -66.05241 | 38651 ft | 547 kts | 49° |
| 2026-05-07 09:30 | 46.39967 | -65.96799 | 38651 ft | 547 kts | 49° |
| 2026-05-07 09:30 | 46.44859 | -65.88344 | 38651 ft | 547 kts | 49° |
| 2026-05-07 09:31 | 46.49736 | -65.79887 | 38654 ft | 547 kts | 49° |
| 2026-05-07 09:31 | 46.54612 | -65.71407 | 38660 ft | 547 kts | 49° |
| 2026-05-07 09:32 | 46.59453 | -65.62962 | 38657 ft | 547 kts | 49° |
| 2026-05-07 09:32 | 46.64318 | -65.54448 | 38662 ft | 547 kts | 50° |
| 2026-05-07 09:33 | 46.69166 | -65.45937 | 38653 ft | 546 kts | 50° |
| 2026-05-07 09:33 | 46.74002 | -65.37423 | 38650 ft | 545 kts | 50° |
| 2026-05-07 09:34 | 46.78830 | -65.28895 | 38655 ft | 546 kts | 50° |
| 2026-05-07 09:34 | 46.83654 | -65.20347 | 38626 ft | 545 kts | 50° |
| 2026-05-07 09:35 | 46.88406 | -65.11901 | 38635 ft | 546 kts | 50° |
| 2026-05-07 09:35 | 46.93230 | -65.03300 | 38636 ft | 548 kts | 50° |
| 2026-05-07 09:36 | 46.98059 | -64.94664 | 38651 ft | 547 kts | 50° |
| 2026-05-07 09:36 | 47.02864 | -64.86044 | 38651 ft | 545 kts | 51° |
| 2026-05-07 09:37 | 47.07651 | -64.77428 | 38643 ft | 544 kts | 51° |
| 2026-05-07 09:37 | 47.12423 | -64.68813 | 38642 ft | 544 kts | 51° |
| 2026-05-07 09:38 | 47.17193 | -64.60173 | 38657 ft | 544 kts | 51° |
| 2026-05-07 09:38 | 47.21952 | -64.51527 | 38658 ft | 544 kts | 51° |
| 2026-05-07 09:39 | 47.26703 | -64.42869 | 38658 ft | 543 kts | 51° |
| 2026-05-07 09:39 | 47.31444 | -64.34200 | 38657 ft | 543 kts | 51° |
| 2026-05-07 09:40 | 47.36173 | -64.25525 | 38647 ft | 543 kts | 51° |
| 2026-05-07 09:40 | 47.40890 | -64.16846 | 38655 ft | 542 kts | 51° |
| 2026-05-07 09:41 | 47.45612 | -64.08131 | 38666 ft | 544 kts | 52° |
| 2026-05-07 09:41 | 47.50301 | -63.99447 | 38669 ft | 544 kts | 52° |
| 2026-05-07 09:42 | 47.55021 | -63.90678 | 38667 ft | 545 kts | 52° |
| 2026-05-07 09:42 | 47.59734 | -63.81895 | 38664 ft | 545 kts | 52° |
| 2026-05-07 09:43 | 47.64432 | -63.73111 | 38658 ft | 542 kts | 52° |
| 2026-05-07 09:43 | 47.69104 | -63.64348 | 38652 ft | 542 kts | 52° |
| 2026-05-07 09:44 | 47.73775 | -63.55557 | 38656 ft | 543 kts | 52° |
| 2026-05-07 09:44 | 47.78437 | -63.46756 | 38650 ft | 541 kts | 52° |
| 2026-05-07 09:45 | 47.83085 | -63.37953 | 38669 ft | 541 kts | 52° |
| 2026-05-07 09:45 | 47.87734 | -63.29118 | 38667 ft | 542 kts | 52° |
| 2026-05-07 09:46 | 47.92382 | -63.20257 | 38667 ft | 543 kts | 53° |
| 2026-05-07 09:46 | 47.97029 | -63.11370 | 38666 ft | 543 kts | 53° |
| 2026-05-07 09:47 | 48.01670 | -63.02464 | 38684 ft | 544 kts | 53° |
| 2026-05-07 09:47 | 48.06310 | -62.93530 | 38686 ft | 544 kts | 53° |
| 2026-05-07 09:48 | 48.10942 | -62.84584 | 38680 ft | 543 kts | 53° |
| 2026-05-07 09:48 | 48.15553 | -62.75647 | 38675 ft | 541 kts | 53° |
| 2026-05-07 09:49 | 48.20113 | -62.66781 | 38677 ft | 541 kts | 53° |
| 2026-05-07 09:49 | 48.24701 | -62.57830 | 38699 ft | 542 kts | 53° |
| 2026-05-07 09:50 | 48.29293 | -62.48842 | 38710 ft | 543 kts | 53° |
| 2026-05-07 09:50 | 48.33882 | -62.39831 | 38711 ft | 543 kts | 53° |
| 2026-05-07 09:51 | 48.38457 | -62.30817 | 38721 ft | 542 kts | 53° |
| 2026-05-07 09:51 | 48.43024 | -62.21789 | 38689 ft | 541 kts | 54° |
| 2026-05-07 09:52 | 48.47570 | -62.12771 | 38717 ft | 541 kts | 54° |
| 2026-05-07 09:52 | 48.52113 | -62.03729 | 38722 ft | 541 kts | 54° |
| 2026-05-07 09:53 | 48.56660 | -61.94651 | 38729 ft | 542 kts | 54° |
| 2026-05-07 09:53 | 48.61170 | -61.85613 | 38736 ft | 544 kts | 54° |
| 2026-05-07 09:54 | 48.65716 | -61.76475 | 38757 ft | 543 kts | 54° |
| 2026-05-07 09:54 | 48.70235 | -61.67359 | 38768 ft | 540 kts | 54° |
| 2026-05-07 09:55 | 48.74741 | -61.58238 | 38766 ft | 541 kts | 54° |
| 2026-05-07 09:55 | 48.79245 | -61.49092 | 38767 ft | 542 kts | 54° |
| 2026-05-07 09:56 | 48.83752 | -61.39906 | 38779 ft | 543 kts | 54° |
| 2026-05-07 09:56 | 48.88259 | -61.30691 | 38778 ft | 543 kts | 54° |
| 2026-05-07 09:57 | 48.92747 | -61.21482 | 38786 ft | 541 kts | 55° |
| 2026-05-07 09:57 | 48.97210 | -61.12292 | 38787 ft | 539 kts | 55° |
| 2026-05-07 09:58 | 49.01664 | -61.03090 | 38785 ft | 540 kts | 55° |
| 2026-05-07 09:58 | 49.06122 | -60.93850 | 38799 ft | 541 kts | 55° |
| 2026-05-07 09:59 | 49.10578 | -60.84580 | 38801 ft | 542 kts | 55° |
| 2026-05-07 09:59 | 49.15027 | -60.75293 | 38804 ft | 542 kts | 55° |
| 2026-05-07 10:00 | 49.19439 | -60.66051 | 38809 ft | 541 kts | 55° |
| 2026-05-07 10:00 | 49.23862 | -60.56754 | 38813 ft | 540 kts | 55° |
| 2026-05-07 10:01 | 49.28206 | -60.47591 | 38815 ft | 540 kts | 55° |
| 2026-05-07 10:01 | 49.32550 | -60.38395 | 38818 ft | 539 kts | 55° |
| 2026-05-07 10:02 | 49.36934 | -60.29086 | 38816 ft | 537 kts | 56° |
| 2026-05-07 10:02 | 49.41298 | -60.19785 | 38817 ft | 537 kts | 56° |
| 2026-05-07 10:03 | 49.45655 | -60.10465 | 38817 ft | 538 kts | 56° |
| 2026-05-07 10:03 | 49.50014 | -60.01111 | 38836 ft | 537 kts | 56° |
| 2026-05-07 10:04 | 49.54363 | -59.91743 | 38838 ft | 538 kts | 56° |
| 2026-05-07 10:04 | 49.58712 | -59.82344 | 38840 ft | 539 kts | 56° |
| 2026-05-07 10:05 | 49.63056 | -59.72920 | 38844 ft | 540 kts | 56° |
| 2026-05-07 10:05 | 49.67399 | -59.63467 | 38846 ft | 537 kts | 56° |
| 2026-05-07 10:06 | 49.71699 | -59.54074 | 38852 ft | 535 kts | 56° |
| 2026-05-07 10:06 | 49.75985 | -59.44678 | 38848 ft | 535 kts | 56° |
| 2026-05-07 10:07 | 49.80243 | -59.35309 | 38851 ft | 535 kts | 56° |
| 2026-05-07 10:07 | 49.84484 | -59.25947 | 38854 ft | 533 kts | 57° |
| 2026-05-07 10:08 | 49.88756 | -59.16480 | 38851 ft | 533 kts | 57° |
| 2026-05-07 10:08 | 49.92972 | -59.07105 | 38866 ft | 534 kts | 57° |
| 2026-05-07 10:09 | 49.97215 | -58.97640 | 38872 ft | 535 kts | 57° |
| 2026-05-07 10:09 | 50.01463 | -58.88125 | 38840 ft | 536 kts | 58° |
| 2026-05-07 10:10 | 50.05711 | -58.78576 | 38870 ft | 538 kts | 58° |
| 2026-05-07 10:10 | 50.09979 | -58.68949 | 38878 ft | 541 kts | 58° |
| 2026-05-07 10:11 | 50.14244 | -58.59294 | 38884 ft | 541 kts | 58° |
| 2026-05-07 10:11 | 50.18517 | -58.49582 | 38890 ft | 543 kts | 58° |
| 2026-05-07 10:12 | 50.22778 | -58.39866 | 38890 ft | 542 kts | 58° |
| 2026-05-07 10:12 | 50.27019 | -58.30157 | 38888 ft | 541 kts | 58° |
| 2026-05-07 10:13 | 50.31260 | -58.20412 | 38887 ft | 542 kts | 58° |
| 2026-05-07 10:13 | 50.35502 | -58.10630 | 38897 ft | 545 kts | 58° |
| 2026-05-07 10:14 | 50.39031 | -58.02463 | 38899 ft | 544 kts | 58° |
| 2026-05-07 10:14 | 50.43263 | -57.92636 | 38906 ft | 543 kts | 58° |
| 2026-05-07 10:15 | 50.47480 | -57.82808 | 38909 ft | 543 kts | 58° |
| 2026-05-07 10:15 | 50.51696 | -57.72944 | 38910 ft | 544 kts | 58° |
| 2026-05-07 10:16 | 50.55907 | -57.63054 | 38917 ft | 546 kts | 58° |
| 2026-05-07 10:16 | 50.60099 | -57.53174 | 38920 ft | 546 kts | 58° |
| 2026-05-07 10:17 | 50.64299 | -57.43236 | 38918 ft | 544 kts | 58° |
| 2026-05-07 10:17 | 50.68475 | -57.33317 | 38920 ft | 543 kts | 58° |
| 2026-05-07 10:18 | 50.72645 | -57.23377 | 38930 ft | 543 kts | 58° |
| 2026-05-07 10:18 | 50.76798 | -57.13437 | 38946 ft | 542 kts | 58° |
| 2026-05-07 10:19 | 50.80937 | -57.03494 | 38949 ft | 541 kts | 58° |
| 2026-05-07 10:19 | 50.85066 | -56.93535 | 38953 ft | 541 kts | 59° |
| 2026-05-07 10:20 | 50.89182 | -56.83573 | 38949 ft | 541 kts | 59° |
| 2026-05-07 10:20 | 50.93293 | -56.73580 | 38951 ft | 540 kts | 59° |
| 2026-05-07 10:21 | 50.97360 | -56.63660 | 38961 ft | 540 kts | 59° |
| 2026-05-07 10:21 | 51.01440 | -56.53668 | 38962 ft | 539 kts | 59° |
| 2026-05-07 10:22 | 51.05540 | -56.43589 | 38967 ft | 539 kts | 60° |
| 2026-05-07 10:22 | 51.09605 | -56.33556 | 38969 ft | 541 kts | 60° |
| 2026-05-07 10:23 | 51.13651 | -56.23534 | 38977 ft | 542 kts | 60° |
| 2026-05-07 10:23 | 51.17716 | -56.13424 | 38987 ft | 541 kts | 60° |
| 2026-05-07 10:24 | 51.21762 | -56.03319 | 38972 ft | 540 kts | 59° |
| 2026-05-07 10:24 | 51.25788 | -55.93233 | 38972 ft | 538 kts | 60° |
| 2026-05-07 10:25 | 51.29804 | -55.83122 | 38972 ft | 539 kts | 60° |
| 2026-05-07 10:25 | 51.33820 | -55.72978 | 38963 ft | 540 kts | 60° |
| 2026-05-07 10:26 | 51.37836 | -55.62792 | 38977 ft | 541 kts | 60° |
| 2026-05-07 10:26 | 51.41839 | -55.52601 | 38994 ft | 540 kts | 60° |
| 2026-05-07 10:27 | 51.45828 | -55.42401 | 38986 ft | 539 kts | 60° |
| 2026-05-07 10:27 | 51.49801 | -55.32206 | 38984 ft | 538 kts | 60° |
| 2026-05-07 10:28 | 51.53759 | -55.22005 | 38982 ft | 538 kts | 60° |
| 2026-05-07 10:28 | 51.57716 | -55.11768 | 38993 ft | 539 kts | 59° |
| 2026-05-07 10:29 | 51.61658 | -55.01529 | 38990 ft | 537 kts | 60° |
| 2026-05-07 10:29 | 51.65548 | -54.91385 | 38992 ft | 536 kts | 60° |
| 2026-05-07 10:30 | 51.71429 | -54.75972 | 38995 ft | 539 kts | 60° |
| 2026-05-07 10:30 | 51.75352 | -54.65638 | 39001 ft | 541 kts | 60° |
| 2026-05-07 10:31 | 51.79268 | -54.55280 | 39006 ft | 539 kts | 60° |
| 2026-05-07 10:31 | 51.82592 | -54.44475 | 39025 ft | 537 kts | 68° |
| 2026-05-07 10:32 | 51.85747 | -54.33514 | 39020 ft | 538 kts | 67° |
| 2026-05-07 10:32 | 51.88927 | -54.22540 | 39018 ft | 539 kts | 68° |
| 2026-05-07 10:33 | 51.92083 | -54.11513 | 39031 ft | 539 kts | 68° |
| 2026-05-07 10:33 | 51.95240 | -54.00484 | 39035 ft | 539 kts | 67° |
| 2026-05-07 10:34 | 51.98369 | -53.89473 | 39013 ft | 536 kts | 67° |
| 2026-05-07 10:34 | 52.01481 | -53.78484 | 39019 ft | 535 kts | 67° |
| 2026-05-07 10:35 | 52.04575 | -53.67498 | 39029 ft | 535 kts | 67° |
| 2026-05-07 10:35 | 52.07665 | -53.56482 | 39024 ft | 535 kts | 67° |
| 2026-05-07 10:36 | 52.10722 | -53.45530 | 39025 ft | 536 kts | 67° |
| 2026-05-07 10:36 | 52.13794 | -53.34473 | 39042 ft | 536 kts | 67° |
| 2026-05-07 10:37 | 52.16858 | -53.23390 | 39039 ft | 537 kts | 68° |
| 2026-05-07 10:37 | 52.19915 | -53.12280 | 39042 ft | 537 kts | 68° |
| 2026-05-07 10:38 | 52.22966 | -53.01139 | 39044 ft | 536 kts | 68° |
| 2026-05-07 10:38 | 52.25988 | -52.90053 | 39023 ft | 533 kts | 68° |
| 2026-05-07 10:39 | 52.28976 | -52.79035 | 39045 ft | 531 kts | 68° |
| 2026-05-07 10:39 | 52.31960 | -52.67982 | 39048 ft | 532 kts | 68° |
| 2026-05-07 10:40 | 52.34942 | -52.56879 | 39065 ft | 533 kts | 68° |
| 2026-05-07 10:40 | 52.37901 | -52.45813 | 39051 ft | 530 kts | 68° |
| 2026-05-07 10:41 | 52.40843 | -52.34754 | 39047 ft | 529 kts | 68° |
| 2026-05-07 10:41 | 52.43775 | -52.23681 | 39051 ft | 529 kts | 68° |
| 2026-05-07 10:42 | 52.46675 | -52.12674 | 39048 ft | 529 kts | 68° |
| 2026-05-07 10:42 | 52.49583 | -52.01584 | 39056 ft | 529 kts | 68° |
| 2026-05-07 10:43 | 52.52483 | -51.90472 | 39057 ft | 529 kts | 68° |
| 2026-05-07 10:43 | 52.55391 | -51.79271 | 39055 ft | 529 kts | 68° |
| 2026-05-07 10:44 | 52.58250 | -51.68207 | 39057 ft | 529 kts | 68° |
| 2026-05-07 10:44 | 52.61127 | -51.57016 | 39058 ft | 526 kts | 68° |
| 2026-05-07 10:45 | 52.63947 | -51.45990 | 39063 ft | 526 kts | 68° |
| 2026-05-07 10:45 | 52.66780 | -51.34863 | 39063 ft | 528 kts | 68° |
| 2026-05-07 10:46 | 52.69610 | -51.23689 | 39078 ft | 528 kts | 68° |
| 2026-05-07 10:46 | 52.72431 | -51.12498 | 39080 ft | 527 kts | 68° |
| 2026-05-07 10:47 | 52.75220 | -51.01378 | 39081 ft | 523 kts | 68° |
| 2026-05-07 10:47 | 52.77988 | -50.90279 | 39069 ft | 524 kts | 69° |
| 2026-05-07 10:48 | 52.80753 | -50.79146 | 39080 ft | 524 kts | 69° |
| 2026-05-07 10:48 | 52.83509 | -50.67987 | 39077 ft | 521 kts | 68° |
| 2026-05-07 10:49 | 52.86215 | -50.56976 | 39076 ft | 515 kts | 68° |
| 2026-05-07 10:49 | 52.88905 | -50.45974 | 39078 ft | 517 kts | 69° |
| 2026-05-07 10:50 | 52.91596 | -50.34917 | 39082 ft | 518 kts | 69° |
| 2026-05-07 10:50 | 52.94282 | -50.23819 | 39089 ft | 519 kts | 69° |
| 2026-05-07 10:51 | 52.96961 | -50.12698 | 39089 ft | 519 kts | 69° |
| 2026-05-07 10:51 | 52.99610 | -50.01628 | 39090 ft | 519 kts | 70° |
| 2026-05-07 10:52 | 53.01447 | -49.90085 | 39095 ft | 518 kts | 78° |
| 2026-05-07 10:52 | 53.03096 | -49.78442 | 39106 ft | 518 kts | 77° |
| 2026-05-07 10:53 | 53.04767 | -49.66811 | 39091 ft | 517 kts | 77° |
| 2026-05-07 10:53 | 53.06394 | -49.55233 | 39090 ft | 513 kts | 77° |
| 2026-05-07 10:54 | 53.08018 | -49.43691 | 39094 ft | 513 kts | 77° |
| 2026-05-07 10:54 | 53.09624 | -49.32130 | 39094 ft | 513 kts | 77° |
| 2026-05-07 10:55 | 53.11223 | -49.20561 | 39096 ft | 513 kts | 77° |
| 2026-05-07 10:55 | 53.12809 | -49.08982 | 39101 ft | 513 kts | 77° |
| 2026-05-07 10:56 | 53.14388 | -48.97370 | 39111 ft | 515 kts | 77° |
| 2026-05-07 10:56 | 53.15961 | -48.85705 | 39116 ft | 517 kts | 78° |
| 2026-05-07 10:57 | 53.17523 | -48.74029 | 39104 ft | 514 kts | 77° |
| 2026-05-07 10:57 | 53.19060 | -48.62455 | 39103 ft | 511 kts | 77° |
| 2026-05-07 10:58 | 53.20583 | -48.50884 | 39104 ft | 511 kts | 77° |
| 2026-05-07 10:58 | 53.22091 | -48.39344 | 39119 ft | 513 kts | 77° |
| 2026-05-07 10:59 | 53.23602 | -48.27675 | 39121 ft | 514 kts | 77° |
| 2026-05-07 10:59 | 53.25101 | -48.16006 | 39126 ft | 514 kts | 77° |
| 2026-05-07 11:00 | 53.26587 | -48.04343 | 39128 ft | 513 kts | 78° |
| 2026-05-07 11:00 | 53.28063 | -47.92665 | 39134 ft | 513 kts | 78° |
| 2026-05-07 11:01 | 53.29277 | -47.82971 | 39124 ft | 512 kts | 77° |
| 2026-05-07 11:01 | 53.30725 | -47.71341 | 39133 ft | 511 kts | 77° |
| 2026-05-07 11:02 | 53.32164 | -47.59674 | 39130 ft | 511 kts | 77° |
| 2026-05-07 11:02 | 53.33589 | -47.48024 | 39133 ft | 511 kts | 77° |
| 2026-05-07 11:03 | 53.35000 | -47.36384 | 39133 ft | 511 kts | 77° |
| 2026-05-07 11:03 | 53.36401 | -47.24721 | 39144 ft | 511 kts | 77° |
| 2026-05-07 11:04 | 53.37792 | -47.13052 | 39146 ft | 512 kts | 78° |
| 2026-05-07 11:04 | 53.39179 | -47.01305 | 39292 ft | 515 kts | 78° |
| 2026-05-07 11:05 | 53.39861 | -46.95481 | 39479 ft | 513 kts | 77° |
| 2026-05-07 11:05 | 53.40547 | -46.89604 | 39710 ft | 511 kts | 77° |
| 2026-05-07 11:05 | 53.41226 | -46.83767 | 39861 ft | 510 kts | 77° |
| 2026-05-07 11:05 | 53.41901 | -46.77933 | 40039 ft | 509 kts | 78° |
| 2026-05-07 11:06 | 53.42573 | -46.72103 | 40140 ft | 510 kts | 78° |
| 2026-05-07 11:06 | 53.43244 | -46.66252 | 40134 ft | 511 kts | 78° |
| 2026-05-07 11:06 | 53.44571 | -46.54586 | 40141 ft | 508 kts | 78° |
| 2026-05-07 11:07 | 53.45884 | -46.42959 | 40141 ft | 507 kts | 78° |
| 2026-05-07 11:07 | 53.47182 | -46.31342 | 40140 ft | 506 kts | 78° |
| 2026-05-07 11:08 | 53.48468 | -46.19738 | 40146 ft | 506 kts | 78° |
| 2026-05-07 11:08 | 53.49745 | -46.08095 | 40157 ft | 506 kts | 78° |
| 2026-05-07 11:09 | 53.51003 | -45.96520 | 40145 ft | 502 kts | 78° |
| 2026-05-07 11:09 | 53.52245 | -45.84986 | 40153 ft | 502 kts | 78° |
| 2026-05-07 11:10 | 53.53478 | -45.73414 | 40156 ft | 503 kts | 78° |
| 2026-05-07 11:10 | 53.54704 | -45.61810 | 40158 ft | 504 kts | 78° |
| 2026-05-07 11:11 | 53.55920 | -45.50182 | 40184 ft | 505 kts | 78° |
| 2026-05-07 11:11 | 53.57125 | -45.38539 | 40176 ft | 505 kts | 78° |
| 2026-05-07 11:12 | 53.58307 | -45.27014 | 40177 ft | 503 kts | 78° |
| 2026-05-07 11:12 | 53.59484 | -45.15410 | 40164 ft | 502 kts | 78° |
| 2026-05-07 11:13 | 53.60644 | -45.03861 | 40171 ft | 499 kts | 78° |
| 2026-05-07 11:13 | 53.61793 | -44.92319 | 40172 ft | 501 kts | 78° |
| 2026-05-07 11:14 | 53.62935 | -44.80716 | 40188 ft | 503 kts | 78° |
| 2026-05-07 11:14 | 53.64070 | -44.69057 | 40194 ft | 504 kts | 78° |
| 2026-05-07 11:15 | 53.65192 | -44.57420 | 40194 ft | 503 kts | 78° |
| 2026-05-07 11:15 | 53.66300 | -44.45803 | 40193 ft | 502 kts | 78° |
| 2026-05-07 11:16 | 53.67397 | -44.34179 | 40198 ft | 502 kts | 78° |
| 2026-05-07 11:16 | 53.68482 | -44.22560 | 40199 ft | 502 kts | 78° |
| 2026-05-07 11:17 | 53.69555 | -44.10927 | 40197 ft | 501 kts | 78° |
| 2026-05-07 11:17 | 53.70616 | -43.99311 | 40197 ft | 500 kts | 78° |
| 2026-05-07 11:18 | 53.71664 | -43.87707 | 40200 ft | 500 kts | 78° |
| 2026-05-07 11:18 | 53.72701 | -43.76089 | 40202 ft | 501 kts | 78° |
| 2026-05-07 11:19 | 53.73729 | -43.64443 | 40200 ft | 502 kts | 78° |
| 2026-05-07 11:19 | 53.74748 | -43.52765 | 40200 ft | 503 kts | 79° |
| 2026-05-07 11:20 | 53.75758 | -43.41048 | 40212 ft | 504 kts | 79° |
| 2026-05-07 11:20 | 53.76758 | -43.29325 | 40217 ft | 504 kts | 79° |
| 2026-05-07 11:21 | 53.77743 | -43.17623 | 40200 ft | 501 kts | 78° |
| 2026-05-07 11:21 | 53.78713 | -43.05969 | 40227 ft | 501 kts | 78° |
| 2026-05-07 11:22 | 53.79676 | -42.94260 | 40215 ft | 504 kts | 78° |
| 2026-05-07 11:22 | 53.80631 | -42.82487 | 40227 ft | 505 kts | 79° |
| 2026-05-07 11:23 | 53.81569 | -42.70783 | 40224 ft | 504 kts | 79° |
| 2026-05-07 11:23 | 53.82499 | -42.59029 | 40230 ft | 504 kts | 79° |
| 2026-05-07 11:24 | 53.83417 | -42.47280 | 40226 ft | 503 kts | 79° |
| 2026-05-07 11:24 | 53.84301 | -42.35827 | 40230 ft | 505 kts | 79° |
| 2026-05-07 11:25 | 53.85201 | -42.24002 | 40235 ft | 506 kts | 79° |
| 2026-05-07 11:25 | 53.86088 | -42.12192 | 40247 ft | 506 kts | 79° |
| 2026-05-07 11:26 | 53.86967 | -42.00345 | 40247 ft | 506 kts | 79° |
| 2026-05-07 11:26 | 53.87833 | -41.88504 | 40249 ft | 506 kts | 79° |
| 2026-05-07 11:27 | 53.88685 | -41.76668 | 40254 ft | 507 kts | 79° |
| 2026-05-07 11:27 | 53.89530 | -41.64788 | 40255 ft | 508 kts | 79° |
| 2026-05-07 11:28 | 53.90365 | -41.52872 | 40256 ft | 509 kts | 79° |
| 2026-05-07 11:28 | 53.91187 | -41.40958 | 40269 ft | 507 kts | 79° |
| 2026-05-07 11:29 | 53.91995 | -41.29083 | 40257 ft | 506 kts | 79° |
| 2026-05-07 11:29 | 53.92783 | -41.17321 | 40255 ft | 506 kts | 79° |
| 2026-05-07 11:30 | 53.93569 | -41.05429 | 40265 ft | 508 kts | 79° |
| 2026-05-07 11:30 | 53.94342 | -40.93509 | 40281 ft | 508 kts | 79° |
| 2026-05-07 11:31 | 53.95105 | -40.81593 | 40284 ft | 508 kts | 79° |
| 2026-05-07 11:31 | 53.95856 | -40.69665 | 40274 ft | 508 kts | 79° |
| 2026-05-07 11:32 | 53.96959 | -40.51775 | 40281 ft | 507 kts | 79° |
| 2026-05-07 11:33 | 53.97680 | -40.39860 | 40275 ft | 506 kts | 79° |
| 2026-05-07 11:33 | 53.98386 | -40.27976 | 40273 ft | 505 kts | 79° |
| 2026-05-07 11:34 | 53.99082 | -40.16082 | 40276 ft | 507 kts | 79° |
| 2026-05-07 11:34 | 53.99767 | -40.04142 | 40292 ft | 508 kts | 79° |
| 2026-05-07 11:35 | 54.01088 | -39.92471 | 40287 ft | 502 kts | 71° |
| 2026-05-07 11:35 | 54.02742 | -39.80931 | 40292 ft | 502 kts | 71° |
| 2026-05-07 11:36 | 54.04386 | -39.69382 | 40293 ft | 502 kts | 71° |
| 2026-05-07 11:36 | 54.06008 | -39.57893 | 40295 ft | 502 kts | 71° |
| 2026-05-07 11:37 | 54.07628 | -39.46334 | 40303 ft | 502 kts | 71° |
| 2026-05-07 11:37 | 54.09240 | -39.34748 | 40296 ft | 503 kts | 71° |
| 2026-05-07 11:38 | 54.10835 | -39.23182 | 40300 ft | 500 kts | 71° |
| 2026-05-07 11:38 | 54.12416 | -39.11648 | 40298 ft | 499 kts | 71° |
| 2026-05-07 11:39 | 54.13984 | -39.00106 | 40299 ft | 500 kts | 71° |
| 2026-05-07 11:39 | 54.15544 | -38.88540 | 40302 ft | 501 kts | 71° |
| 2026-05-07 11:40 | 54.17095 | -38.76942 | 40307 ft | 501 kts | 71° |
| 2026-05-07 11:40 | 54.18634 | -38.65343 | 40307 ft | 501 kts | 71° |
| 2026-05-07 11:41 | 54.20151 | -38.53827 | 40312 ft | 500 kts | 71° |
| 2026-05-07 11:41 | 54.21665 | -38.42216 | 40316 ft | 500 kts | 71° |
| 2026-05-07 11:42 | 54.23170 | -38.30623 | 40345 ft | 499 kts | 71° |
| 2026-05-07 11:42 | 54.24662 | -38.19007 | 40315 ft | 501 kts | 71° |
| 2026-05-07 11:43 | 54.26145 | -38.07372 | 40316 ft | 501 kts | 71° |
| 2026-05-07 11:43 | 54.27615 | -37.95740 | 40325 ft | 500 kts | 71° |
| 2026-05-07 11:44 | 54.29070 | -37.84133 | 40326 ft | 499 kts | 71° |
| 2026-05-07 11:44 | 54.30514 | -37.72521 | 40327 ft | 500 kts | 72° |
| 2026-05-07 11:45 | 54.31953 | -37.60834 | 40328 ft | 500 kts | 72° |
| 2026-05-07 11:45 | 54.33374 | -37.49207 | 40328 ft | 499 kts | 72° |
| 2026-05-07 11:46 | 54.34784 | -37.37572 | 40326 ft | 498 kts | 72° |
| 2026-05-07 11:46 | 54.36183 | -37.25928 | 40331 ft | 500 kts | 72° |
| 2026-05-07 11:47 | 54.37341 | -37.16212 | 40320 ft | 502 kts | 72° |
| 2026-05-07 11:47 | 54.38724 | -37.04497 | 40334 ft | 500 kts | 72° |
| 2026-05-07 11:48 | 54.40093 | -36.92817 | 40328 ft | 499 kts | 72° |
| 2026-05-07 11:48 | 54.41438 | -36.81233 | 40324 ft | 500 kts | 72° |
| 2026-05-07 11:49 | 54.42789 | -36.69493 | 40323 ft | 501 kts | 73° |
| 2026-05-07 11:49 | 54.44129 | -36.57738 | 40328 ft | 502 kts | 73° |
| 2026-05-07 11:50 | 54.45452 | -36.46027 | 40325 ft | 502 kts | 73° |
| 2026-05-07 11:50 | 54.46773 | -36.34227 | 40327 ft | 503 kts | 73° |
| 2026-05-07 11:51 | 54.48083 | -36.22413 | 40330 ft | 503 kts | 73° |
| 2026-05-07 11:51 | 54.49383 | -36.10578 | 40331 ft | 503 kts | 73° |
| 2026-05-07 11:52 | 54.50675 | -35.98712 | 40322 ft | 505 kts | 74° |
| 2026-05-07 11:52 | 54.51952 | -35.86843 | 40323 ft | 504 kts | 74° |
| 2026-05-07 11:53 | 54.53217 | -35.75000 | 40318 ft | 503 kts | 74° |
| 2026-05-07 11:53 | 54.54469 | -35.63143 | 40316 ft | 503 kts | 74° |
| 2026-05-07 11:54 | 54.55712 | -35.51271 | 40318 ft | 504 kts | 74° |
| 2026-05-07 11:54 | 54.56942 | -35.39381 | 40325 ft | 502 kts | 75° |
| 2026-05-07 11:55 | 54.58152 | -35.27584 | 40324 ft | 499 kts | 75° |
| 2026-05-07 11:55 | 54.59344 | -35.15855 | 40327 ft | 500 kts | 75° |
| 2026-05-07 11:56 | 54.60532 | -35.04020 | 40321 ft | 501 kts | 75° |
| 2026-05-07 11:56 | 54.61711 | -34.92175 | 40327 ft | 503 kts | 75° |
| 2026-05-07 11:57 | 54.62881 | -34.80278 | 40330 ft | 504 kts | 75° |
| 2026-05-07 11:57 | 54.64041 | -34.68358 | 40329 ft | 503 kts | 75° |
| 2026-05-07 11:58 | 54.65186 | -34.56473 | 40326 ft | 501 kts | 75° |
| 2026-05-07 11:58 | 54.66318 | -34.44601 | 40322 ft | 500 kts | 75° |
| 2026-05-07 11:59 | 54.67436 | -34.32748 | 40319 ft | 500 kts | 75° |
| 2026-05-07 11:59 | 54.68534 | -34.20960 | 40322 ft | 499 kts | 76° |
| 2026-05-07 12:00 | 54.69627 | -34.09116 | 40319 ft | 499 kts | 76° |
| 2026-05-07 12:00 | 54.70710 | -33.97253 | 40326 ft | 501 kts | 76° |
| 2026-05-07 12:01 | 54.71785 | -33.85320 | 40333 ft | 502 kts | 76° |
| 2026-05-07 12:01 | 54.72851 | -33.73368 | 40329 ft | 504 kts | 76° |
| 2026-05-07 12:02 | 54.73907 | -33.61375 | 40326 ft | 505 kts | 76° |
| 2026-05-07 12:02 | 54.74955 | -33.49340 | 40328 ft | 505 kts | 76° |
| 2026-05-07 12:03 | 54.75991 | -33.37308 | 40324 ft | 505 kts | 76° |
| 2026-05-07 12:03 | 54.77013 | -33.25270 | 40323 ft | 505 kts | 76° |
| 2026-05-07 12:04 | 54.78027 | -33.13213 | 40323 ft | 506 kts | 77° |
| 2026-05-07 12:04 | 54.79026 | -33.01151 | 40321 ft | 506 kts | 77° |
| 2026-05-07 12:05 | 54.80016 | -32.89076 | 40316 ft | 506 kts | 77° |
| 2026-05-07 12:05 | 54.80992 | -32.77003 | 40316 ft | 506 kts | 77° |
| 2026-05-07 12:06 | 54.81958 | -32.64910 | 40316 ft | 506 kts | 77° |
| 2026-05-07 12:06 | 54.82914 | -32.52788 | 40312 ft | 508 kts | 77° |
| 2026-05-07 12:07 | 54.83859 | -32.40629 | 40313 ft | 509 kts | 77° |
| 2026-05-07 12:07 | 54.84794 | -32.28449 | 40319 ft | 509 kts | 77° |
| 2026-05-07 12:08 | 54.85717 | -32.16257 | 40322 ft | 509 kts | 77° |
| 2026-05-07 12:08 | 54.86627 | -32.04068 | 40347 ft | 509 kts | 77° |
| 2026-05-07 12:09 | 54.87527 | -31.91850 | 40317 ft | 510 kts | 77° |
| 2026-05-07 12:09 | 54.88411 | -31.79660 | 40305 ft | 508 kts | 78° |
| 2026-05-07 12:10 | 54.89277 | -31.67573 | 40301 ft | 507 kts | 78° |
| 2026-05-07 12:10 | 54.90137 | -31.55390 | 40302 ft | 509 kts | 78° |
| 2026-05-07 12:11 | 54.90986 | -31.43175 | 40322 ft | 510 kts | 78° |
| 2026-05-07 12:11 | 54.91822 | -31.30944 | 40313 ft | 508 kts | 78° |
| 2026-05-07 12:12 | 54.92646 | -31.18741 | 40287 ft | 507 kts | 78° |
| 2026-05-07 12:12 | 54.93455 | -31.06568 | 40284 ft | 507 kts | 78° |
| 2026-05-07 12:13 | 54.94253 | -30.94366 | 40288 ft | 508 kts | 78° |
| 2026-05-07 12:13 | 54.95041 | -30.82121 | 40297 ft | 509 kts | 79° |
| 2026-05-07 12:14 | 54.95815 | -30.69893 | 40298 ft | 507 kts | 79° |
| 2026-05-07 12:14 | 54.96575 | -30.57703 | 40294 ft | 506 kts | 79° |
| 2026-05-07 12:15 | 54.97323 | -30.45510 | 40298 ft | 507 kts | 79° |
| 2026-05-07 12:15 | 54.98055 | -30.33358 | 40295 ft | 508 kts | 79° |
| 2026-05-07 12:16 | 54.98782 | -30.21088 | 40294 ft | 510 kts | 79° |
| 2026-05-07 12:16 | 54.99494 | -30.08837 | 40289 ft | 507 kts | 79° |
| 2026-05-07 12:17 | 55.00123 | -29.96606 | 40296 ft | 507 kts | 82° |
| 2026-05-07 12:17 | 55.00644 | -29.84322 | 40289 ft | 510 kts | 81° |
| 2026-05-07 12:18 | 55.01120 | -29.71968 | 40289 ft | 512 kts | 82° |
| 2026-05-07 12:18 | 55.01594 | -29.59586 | 40279 ft | 511 kts | 82° |
| 2026-05-07 12:19 | 55.02056 | -29.47253 | 40280 ft | 509 kts | 82° |
| 2026-05-07 12:19 | 55.02499 | -29.34946 | 40276 ft | 508 kts | 82° |
| 2026-05-07 12:20 | 55.02935 | -29.22668 | 40273 ft | 509 kts | 82° |
| 2026-05-07 12:20 | 55.03355 | -29.10310 | 40269 ft | 511 kts | 82° |
| 2026-05-07 12:21 | 55.03767 | -28.97924 | 40274 ft | 512 kts | 82° |
| 2026-05-07 12:21 | 55.04165 | -28.85523 | 40273 ft | 513 kts | 82° |
| 2026-05-07 12:22 | 55.04551 | -28.73136 | 40274 ft | 511 kts | 82° |
| 2026-05-07 12:22 | 55.04923 | -28.60769 | 40264 ft | 510 kts | 83° |
| 2026-05-07 12:23 | 55.05282 | -28.48442 | 40281 ft | 509 kts | 83° |
| 2026-05-07 12:23 | 55.05629 | -28.36109 | 40263 ft | 511 kts | 83° |
| 2026-05-07 12:24 | 55.05965 | -28.23694 | 40267 ft | 513 kts | 83° |
| 2026-05-07 12:24 | 55.06289 | -28.11250 | 40260 ft | 513 kts | 83° |
| 2026-05-07 12:25 | 55.06599 | -27.98819 | 40254 ft | 512 kts | 83° |
| 2026-05-07 12:25 | 55.06897 | -27.86421 | 40267 ft | 511 kts | 84° |
| 2026-05-07 12:26 | 55.07182 | -27.74014 | 40248 ft | 512 kts | 84° |
| 2026-05-07 12:26 | 55.07454 | -27.61609 | 40240 ft | 511 kts | 84° |
| 2026-05-07 12:27 | 55.07714 | -27.49229 | 40234 ft | 511 kts | 84° |
| 2026-05-07 12:27 | 55.07960 | -27.36838 | 40231 ft | 510 kts | 84° |
| 2026-05-07 12:28 | 55.08195 | -27.24443 | 40240 ft | 511 kts | 84° |
| 2026-05-07 12:28 | 55.08417 | -27.12029 | 40244 ft | 513 kts | 84° |
| 2026-05-07 12:29 | 55.08627 | -26.99570 | 40235 ft | 514 kts | 85° |
| 2026-05-07 12:29 | 55.08824 | -26.87158 | 40237 ft | 515 kts | 85° |
| 2026-05-07 12:30 | 55.09008 | -26.74684 | 40238 ft | 513 kts | 85° |
| 2026-05-07 12:30 | 55.09181 | -26.62238 | 40235 ft | 513 kts | 85° |
| 2026-05-07 12:31 | 55.09340 | -26.49776 | 40222 ft | 514 kts | 85° |
| 2026-05-07 12:31 | 55.09486 | -26.37304 | 40223 ft | 514 kts | 85° |
| 2026-05-07 12:32 | 55.09600 | -26.26849 | 40227 ft | 515 kts | 85° |
| 2026-05-07 12:32 | 55.09722 | -26.14430 | 40229 ft | 515 kts | 85° |
| 2026-05-07 12:33 | 55.09884 | -25.95653 | 40216 ft | 516 kts | 86° |
| 2026-05-07 12:33 | 55.09975 | -25.83139 | 40210 ft | 515 kts | 86° |
| 2026-05-07 12:34 | 55.10054 | -25.70640 | 40205 ft | 515 kts | 86° |
| 2026-05-07 12:34 | 55.10120 | -25.58141 | 40203 ft | 514 kts | 86° |
| 2026-05-07 12:35 | 55.10173 | -25.45662 | 40219 ft | 514 kts | 86° |
| 2026-05-07 12:35 | 55.10213 | -25.33167 | 40195 ft | 516 kts | 87° |
| 2026-05-07 12:36 | 55.10241 | -25.20624 | 40201 ft | 517 kts | 87° |
| 2026-05-07 12:36 | 55.10256 | -25.08054 | 40200 ft | 518 kts | 87° |
| 2026-05-07 12:37 | 55.10257 | -24.95477 | 40197 ft | 517 kts | 87° |
| 2026-05-07 12:37 | 55.10247 | -24.82948 | 40178 ft | 516 kts | 88° |
| 2026-05-07 12:38 | 55.10223 | -24.70530 | 40179 ft | 515 kts | 88° |
| 2026-05-07 12:38 | 55.10186 | -24.58003 | 40176 ft | 515 kts | 88° |
| 2026-05-07 12:39 | 55.10137 | -24.45495 | 40178 ft | 515 kts | 88° |
| 2026-05-07 12:39 | 55.10075 | -24.32984 | 40172 ft | 515 kts | 88° |
| 2026-05-07 12:40 | 55.10000 | -24.20464 | 40181 ft | 516 kts | 88° |
| 2026-05-07 12:40 | 55.09911 | -24.07927 | 40180 ft | 516 kts | 89° |
| 2026-05-07 12:41 | 55.09810 | -23.95381 | 40174 ft | 517 kts | 89° |
| 2026-05-07 12:41 | 55.09696 | -23.82823 | 40171 ft | 518 kts | 89° |
| 2026-05-07 12:42 | 55.09569 | -23.70257 | 40169 ft | 518 kts | 89° |
| 2026-05-07 12:42 | 55.09429 | -23.57659 | 40161 ft | 518 kts | 89° |
| 2026-05-07 12:43 | 55.09276 | -23.45119 | 40145 ft | 516 kts | 89° |
| 2026-05-07 12:43 | 55.09113 | -23.32735 | 40143 ft | 516 kts | 90° |
| 2026-05-07 12:44 | 55.08934 | -23.20204 | 40139 ft | 516 kts | 90° |
| 2026-05-07 12:44 | 55.08743 | -23.07662 | 40136 ft | 517 kts | 90° |
| 2026-05-07 12:45 | 55.08539 | -22.95116 | 40137 ft | 517 kts | 90° |
| 2026-05-07 12:45 | 55.08323 | -22.82632 | 40134 ft | 518 kts | 90° |
| 2026-05-07 12:46 | 55.08091 | -22.69990 | 40137 ft | 518 kts | 90° |
| 2026-05-07 12:46 | 55.07849 | -22.57500 | 40137 ft | 518 kts | 90° |
| 2026-05-07 12:47 | 55.07593 | -22.44942 | 40152 ft | 517 kts | 90° |
| 2026-05-07 12:47 | 55.07325 | -22.32419 | 40133 ft | 516 kts | 91° |
| 2026-05-07 12:48 | 55.07044 | -22.19924 | 40123 ft | 515 kts | 91° |
| 2026-05-07 12:48 | 55.06752 | -22.07459 | 40122 ft | 515 kts | 91° |
| 2026-05-07 12:49 | 55.06445 | -21.94945 | 40121 ft | 517 kts | 91° |
| 2026-05-07 12:49 | 55.06125 | -21.82398 | 40128 ft | 518 kts | 91° |
| 2026-05-07 12:50 | 55.05791 | -21.69850 | 40125 ft | 517 kts | 91° |
| 2026-05-07 12:50 | 55.05445 | -21.57310 | 40124 ft | 517 kts | 92° |
| 2026-05-07 12:51 | 55.05086 | -21.44774 | 40114 ft | 517 kts | 92° |
| 2026-05-07 12:51 | 55.04715 | -21.32243 | 40112 ft | 517 kts | 92° |
| 2026-05-07 12:52 | 55.04330 | -21.19719 | 40103 ft | 518 kts | 92° |
| 2026-05-07 12:52 | 55.03932 | -21.07181 | 40105 ft | 518 kts | 92° |
| 2026-05-07 12:53 | 55.03525 | -20.94741 | 40099 ft | 517 kts | 92° |
| 2026-05-07 12:53 | 55.03102 | -20.82218 | 40084 ft | 517 kts | 92° |
| 2026-05-07 12:54 | 55.02666 | -20.69699 | 40081 ft | 518 kts | 93° |
| 2026-05-07 12:54 | 55.02217 | -20.57173 | 40093 ft | 519 kts | 93° |
| 2026-05-07 12:55 | 55.01753 | -20.44627 | 40088 ft | 519 kts | 93° |
| 2026-05-07 12:55 | 55.01277 | -20.32075 | 40086 ft | 518 kts | 93° |
| 2026-05-07 12:56 | 55.00790 | -20.19556 | 40081 ft | 518 kts | 93° |
| 2026-05-07 12:56 | 55.00288 | -20.07025 | 40081 ft | 519 kts | 94° |
| 2026-05-07 12:57 | 54.99086 | -19.94698 | 40097 ft | 518 kts | 107° |
| 2026-05-07 12:57 | 54.96958 | -19.82714 | 40078 ft | 518 kts | 108° |
| 2026-05-07 12:58 | 54.94839 | -19.70712 | 40063 ft | 519 kts | 108° |
| 2026-05-07 12:58 | 54.92704 | -19.58753 | 40062 ft | 518 kts | 108° |
| 2026-05-07 12:59 | 54.90572 | -19.46875 | 40060 ft | 518 kts | 108° |
| 2026-05-07 12:59 | 54.88415 | -19.34933 | 40058 ft | 518 kts | 108° |
| 2026-05-07 13:00 | 54.86244 | -19.22996 | 40054 ft | 517 kts | 108° |
| 2026-05-07 13:00 | 54.84063 | -19.11076 | 40055 ft | 519 kts | 108° |
| 2026-05-07 13:01 | 54.81868 | -18.99164 | 40056 ft | 518 kts | 108° |
| 2026-05-07 13:01 | 54.79663 | -18.87269 | 40035 ft | 517 kts | 108° |
| 2026-05-07 13:02 | 54.77456 | -18.75435 | 40032 ft | 517 kts | 109° |
| 2026-05-07 13:02 | 54.75233 | -18.63596 | 40037 ft | 517 kts | 109° |
| 2026-05-07 13:03 | 54.72997 | -18.51760 | 40036 ft | 518 kts | 109° |
| 2026-05-07 13:03 | 54.70748 | -18.39928 | 40031 ft | 517 kts | 109° |
| 2026-05-07 13:04 | 54.68488 | -18.28117 | 40033 ft | 518 kts | 109° |
| 2026-05-07 13:04 | 54.66219 | -18.16323 | 40027 ft | 517 kts | 109° |
| 2026-05-07 13:05 | 54.63940 | -18.04560 | 40030 ft | 517 kts | 109° |
| 2026-05-07 13:05 | 54.61653 | -17.92819 | 40025 ft | 517 kts | 110° |
| 2026-05-07 13:06 | 54.59350 | -17.81073 | 40025 ft | 516 kts | 110° |
| 2026-05-07 13:06 | 54.57038 | -17.69348 | 40022 ft | 517 kts | 110° |
| 2026-05-07 13:07 | 54.54728 | -17.57704 | 40018 ft | 516 kts | 110° |
| 2026-05-07 13:07 | 54.52393 | -17.46010 | 40018 ft | 517 kts | 110° |
| 2026-05-07 13:08 | 54.50053 | -17.34350 | 40000 ft | 514 kts | 110° |
| 2026-05-07 13:08 | 54.47707 | -17.22742 | 39998 ft | 513 kts | 110° |
| 2026-05-07 13:09 | 54.45354 | -17.11158 | 39992 ft | 513 kts | 111° |
| 2026-05-07 13:09 | 54.42989 | -16.99583 | 39993 ft | 514 kts | 111° |
| 2026-05-07 13:10 | 54.40611 | -16.88015 | 39983 ft | 514 kts | 111° |
| 2026-05-07 13:10 | 54.38222 | -16.76462 | 39983 ft | 513 kts | 111° |
| 2026-05-07 13:11 | 54.35824 | -16.64930 | 39989 ft | 513 kts | 111° |
| 2026-05-07 13:11 | 54.33419 | -16.53428 | 39980 ft | 512 kts | 111° |
| 2026-05-07 13:12 | 54.31006 | -16.41958 | 39971 ft | 511 kts | 111° |
| 2026-05-07 13:12 | 54.28588 | -16.30525 | 39973 ft | 511 kts | 111° |
| 2026-05-07 13:13 | 54.26177 | -16.19195 | 39974 ft | 513 kts | 111° |
| 2026-05-07 13:13 | 54.23725 | -16.07730 | 39979 ft | 514 kts | 112° |
| 2026-05-07 13:14 | 54.21262 | -15.96282 | 39980 ft | 512 kts | 112° |
| 2026-05-07 13:14 | 54.18795 | -15.84876 | 39964 ft | 511 kts | 112° |
| 2026-05-07 13:15 | 54.16323 | -15.73512 | 39969 ft | 511 kts | 112° |
| 2026-05-07 13:15 | 54.13837 | -15.62145 | 39960 ft | 512 kts | 112° |
| 2026-05-07 13:16 | 54.11330 | -15.50747 | 39967 ft | 514 kts | 112° |
| 2026-05-07 13:16 | 54.08811 | -15.39357 | 39969 ft | 513 kts | 112° |
| 2026-05-07 13:17 | 54.06293 | -15.28032 | 39964 ft | 511 kts | 112° |
| 2026-05-07 13:17 | 54.03786 | -15.16815 | 39959 ft | 509 kts | 112° |
| 2026-05-07 13:18 | 54.01257 | -15.05562 | 39956 ft | 509 kts | 112° |
| 2026-05-07 13:18 | 54.00309 | -14.99760 | 39994 ft | 512 kts | 99° |
| 2026-05-07 13:18 | 54.00024 | -14.93716 | 39991 ft | 515 kts | 90° |
| 2026-05-07 13:19 | 54.00048 | -14.83582 | 39964 ft | 515 kts | 90° |
| 2026-05-07 13:19 | 54.00094 | -14.71346 | 39958 ft | 514 kts | 91° |
| 2026-05-07 13:20 | 54.00097 | -14.59285 | 39963 ft | 513 kts | 91° |
| 2026-05-07 13:20 | 54.00108 | -14.47152 | 39956 ft | 513 kts | 91° |
| 2026-05-07 13:21 | 54.00094 | -14.35020 | 39953 ft | 513 kts | 91° |
| 2026-05-07 13:21 | 54.00076 | -14.22885 | 39952 ft | 513 kts | 91° |
| 2026-05-07 13:22 | 54.00041 | -14.10783 | 39943 ft | 512 kts | 91° |
| 2026-05-07 13:22 | 53.99619 | -13.98757 | 39971 ft | 508 kts | 106° |
| 2026-05-07 13:23 | 53.97473 | -13.87417 | 39998 ft | 511 kts | 111° |
| 2026-05-07 13:23 | 53.96303 | -13.81715 | 40156 ft | 512 kts | 111° |
| 2026-05-07 13:23 | 53.95138 | -13.76003 | 40319 ft | 511 kts | 111° |
| 2026-05-07 13:24 | 53.93984 | -13.70305 | 40540 ft | 510 kts | 111° |
| 2026-05-07 13:24 | 53.92826 | -13.64626 | 40722 ft | 509 kts | 111° |
| 2026-05-07 13:24 | 53.91659 | -13.58953 | 40889 ft | 509 kts | 111° |
| 2026-05-07 13:24 | 53.90488 | -13.53275 | 40936 ft | 512 kts | 111° |
| 2026-05-07 13:25 | 53.88141 | -13.41890 | 40928 ft | 510 kts | 111° |
| 2026-05-07 13:25 | 53.85790 | -13.30579 | 40931 ft | 507 kts | 111° |
| 2026-05-07 13:26 | 53.83440 | -13.19323 | 40929 ft | 507 kts | 111° |
| 2026-05-07 13:26 | 53.81083 | -13.08105 | 40929 ft | 505 kts | 111° |
| 2026-05-07 13:27 | 53.78738 | -12.97004 | 40928 ft | 504 kts | 111° |
| 2026-05-07 13:27 | 53.76363 | -12.85822 | 40932 ft | 505 kts | 111° |
| 2026-05-07 13:28 | 53.74035 | -12.74918 | 40927 ft | 505 kts | 111° |
| 2026-05-07 13:28 | 53.71641 | -12.63765 | 40927 ft | 505 kts | 111° |
| 2026-05-07 13:29 | 53.69236 | -12.52624 | 40929 ft | 505 kts | 112° |
| 2026-05-07 13:29 | 53.66851 | -12.41636 | 40934 ft | 504 kts | 112° |
| 2026-05-07 13:30 | 53.64433 | -12.30553 | 40923 ft | 503 kts | 112° |
| 2026-05-07 13:30 | 53.62003 | -12.19478 | 40912 ft | 503 kts | 112° |
| 2026-05-07 13:31 | 53.59563 | -12.08416 | 40933 ft | 505 kts | 112° |
| 2026-05-07 13:31 | 53.57106 | -11.97331 | 40936 ft | 506 kts | 112° |
| 2026-05-07 13:32 | 53.54640 | -11.86271 | 40938 ft | 505 kts | 112° |
| 2026-05-07 13:32 | 53.52162 | -11.75213 | 40940 ft | 505 kts | 112° |
| 2026-05-07 13:33 | 53.49692 | -11.64250 | 40940 ft | 505 kts | 112° |
| 2026-05-07 13:33 | 53.47181 | -11.53160 | 40936 ft | 505 kts | 113° |
| 2026-05-07 13:34 | 53.43425 | -11.36682 | 40921 ft | 503 kts | 113° |
| 2026-05-07 13:35 | 53.40918 | -11.25757 | 40923 ft | 501 kts | 113° |
| 2026-05-07 13:35 | 53.38423 | -11.14935 | 40922 ft | 501 kts | 113° |
| 2026-05-07 13:36 | 53.35902 | -11.04058 | 40921 ft | 501 kts | 113° |
| 2026-05-07 13:36 | 53.33372 | -10.93201 | 40924 ft | 501 kts | 113° |
| 2026-05-07 13:37 | 53.30864 | -10.82489 | 40928 ft | 501 kts | 114° |
| 2026-05-07 13:37 | 53.28351 | -10.71813 | 40929 ft | 502 kts | 114° |
| 2026-05-07 13:38 | 53.25787 | -10.60970 | 40944 ft | 501 kts | 114° |
| 2026-05-07 13:38 | 53.23216 | -10.50152 | 40942 ft | 501 kts | 114° |
| 2026-05-07 13:39 | 53.20634 | -10.39344 | 40930 ft | 501 kts | 114° |
| 2026-05-07 13:39 | 53.18048 | -10.28574 | 40930 ft | 500 kts | 114° |
| 2026-05-07 13:40 | 53.15451 | -10.17809 | 40945 ft | 499 kts | 114° |
| 2026-05-07 13:40 | 53.12856 | -10.07104 | 40944 ft | 498 kts | 114° |
| 2026-05-07 13:41 | 53.10255 | -9.96428 | 40951 ft | 498 kts | 114° |
| 2026-05-07 13:41 | 53.07640 | -9.85752 | 40953 ft | 499 kts | 114° |
| 2026-05-07 13:42 | 53.05005 | -9.75039 | 40948 ft | 501 kts | 114° |
| 2026-05-07 13:42 | 53.02355 | -9.64321 | 40947 ft | 500 kts | 114° |
| 2026-05-07 13:43 | 52.99714 | -9.53688 | 40943 ft | 498 kts | 115° |
| 2026-05-07 13:43 | 52.97080 | -9.43139 | 40952 ft | 497 kts | 115° |
| 2026-05-07 13:44 | 52.94407 | -9.32479 | 40946 ft | 497 kts | 115° |
| 2026-05-07 13:44 | 52.91741 | -9.21906 | 40941 ft | 497 kts | 115° |
| 2026-05-07 13:45 | 52.89069 | -9.11353 | 40934 ft | 496 kts | 115° |
| 2026-05-07 13:45 | 52.86397 | -9.00847 | 40938 ft | 495 kts | 115° |
| 2026-05-07 13:46 | 52.83728 | -8.90408 | 40937 ft | 496 kts | 115° |
| 2026-05-07 13:46 | 52.81026 | -8.79886 | 40950 ft | 498 kts | 115° |
| 2026-05-07 13:47 | 52.78303 | -8.69335 | 40953 ft | 499 kts | 115° |
| 2026-05-07 13:47 | 52.75575 | -8.58809 | 40949 ft | 498 kts | 115° |
| 2026-05-07 13:48 | 52.72846 | -8.48331 | 40950 ft | 496 kts | 115° |
| 2026-05-07 13:48 | 52.70121 | -8.37916 | 40943 ft | 494 kts | 115° |
| 2026-05-07 13:49 | 52.67382 | -8.27495 | 40939 ft | 495 kts | 115° |
| 2026-05-07 13:49 | 52.64629 | -8.17070 | 40940 ft | 497 kts | 115° |
| 2026-05-07 13:50 | 52.61860 | -8.06632 | 40949 ft | 498 kts | 115° |
| 2026-05-07 13:50 | 52.59085 | -7.96216 | 40941 ft | 496 kts | 115° |
| 2026-05-07 13:51 | 52.56313 | -7.85862 | 40941 ft | 494 kts | 116° |
| 2026-05-07 13:51 | 52.53536 | -7.75537 | 40940 ft | 494 kts | 116° |
| 2026-05-07 13:52 | 52.50745 | -7.65205 | 40947 ft | 496 kts | 116° |
| 2026-05-07 13:52 | 52.47952 | -7.54908 | 40949 ft | 497 kts | 116° |
| 2026-05-07 13:53 | 52.45179 | -7.44736 | 40946 ft | 498 kts | 116° |
| 2026-05-07 13:53 | 52.42353 | -7.34411 | 40962 ft | 496 kts | 116° |
| 2026-05-07 13:54 | 52.39522 | -7.24117 | 40973 ft | 496 kts | 116° |
| 2026-05-07 13:54 | 52.36681 | -7.13829 | 40979 ft | 495 kts | 116° |
| 2026-05-07 13:55 | 52.33837 | -7.03578 | 40982 ft | 495 kts | 116° |
| 2026-05-07 13:55 | 52.31034 | -6.93518 | 40982 ft | 496 kts | 116° |
| 2026-05-07 13:56 | 52.28159 | -6.83243 | 40985 ft | 496 kts | 116° |
| 2026-05-07 13:56 | 52.25285 | -6.73020 | 40983 ft | 496 kts | 116° |
| 2026-05-07 13:57 | 52.22459 | -6.63008 | 40983 ft | 495 kts | 116° |
| 2026-05-07 13:57 | 52.19568 | -6.52812 | 40982 ft | 495 kts | 116° |
| 2026-05-07 13:58 | 52.16672 | -6.42642 | 40980 ft | 495 kts | 116° |
| 2026-05-07 13:58 | 52.13772 | -6.32498 | 40977 ft | 493 kts | 117° |
| 2026-05-07 13:59 | 52.10869 | -6.22392 | 40997 ft | 493 kts | 117° |
| 2026-05-07 13:59 | 52.07946 | -6.12259 | 40994 ft | 496 kts | 117° |
| 2026-05-07 14:00 | 52.05010 | -6.02116 | 41000 ft | 497 kts | 117° |
| 2026-05-07 14:00 | 52.02165 | -5.91894 | 41007 ft | 496 kts | 116° |
| 2026-05-07 14:01 | 51.99286 | -5.81717 | 41003 ft | 495 kts | 116° |
| 2026-05-07 14:01 | 51.96415 | -5.71581 | 41000 ft | 494 kts | 116° |
| 2026-05-07 14:02 | 51.93541 | -5.61471 | 41000 ft | 494 kts | 116° |
| 2026-05-07 14:02 | 51.90675 | -5.51449 | 41007 ft | 493 kts | 116° |
| 2026-05-07 14:03 | 51.87783 | -5.41366 | 41010 ft | 496 kts | 116° |
| 2026-05-07 14:03 | 51.84856 | -5.31213 | 41018 ft | 498 kts | 117° |
| 2026-05-07 14:04 | 51.82400 | -5.22719 | 41022 ft | 497 kts | 117° |
| 2026-05-07 14:04 | 51.79489 | -5.12698 | 41020 ft | 496 kts | 117° |
| 2026-05-07 14:05 | 51.76674 | -5.02544 | 41021 ft | 495 kts | 114° |
| 2026-05-07 14:05 | 51.73951 | -4.92333 | 41021 ft | 497 kts | 115° |
| 2026-05-07 14:06 | 51.71252 | -4.82048 | 41018 ft | 498 kts | 114° |
| 2026-05-07 14:06 | 51.68533 | -4.71820 | 41016 ft | 495 kts | 115° |
| 2026-05-07 14:07 | 51.65823 | -4.61646 | 41011 ft | 494 kts | 115° |
| 2026-05-07 14:07 | 51.63105 | -4.51487 | 41011 ft | 494 kts | 115° |
| 2026-05-07 14:08 | 51.60372 | -4.41324 | 41022 ft | 496 kts | 115° |
| 2026-05-07 14:08 | 51.57624 | -4.31140 | 41022 ft | 497 kts | 115° |
| 2026-05-07 14:09 | 51.54917 | -4.21093 | 41024 ft | 498 kts | 111° |
| 2026-05-07 14:09 | 51.53366 | -4.10243 | 41036 ft | 500 kts | 101° |
| 2026-05-07 14:10 | 51.52154 | -3.99237 | 41037 ft | 500 kts | 102° |
| 2026-05-07 14:10 | 51.50893 | -3.88261 | 41032 ft | 499 kts | 102° |
| 2026-05-07 14:11 | 51.49647 | -3.77317 | 41025 ft | 498 kts | 102° |
| 2026-05-07 14:11 | 51.48392 | -3.66492 | 41019 ft | 496 kts | 102° |
| 2026-05-07 14:12 | 51.47500 | -3.55508 | 40985 ft | 498 kts | 96° |
| 2026-05-07 14:12 | 51.47196 | -3.49965 | 40618 ft | 500 kts | 96° |
| 2026-05-07 14:12 | 51.46878 | -3.44406 | 40298 ft | 500 kts | 97° |
| 2026-05-07 14:12 | 51.46544 | -3.38870 | 40005 ft | 499 kts | 97° |
| 2026-05-07 14:13 | 51.46210 | -3.33323 | 39738 ft | 499 kts | 97° |
| 2026-05-07 14:13 | 51.45884 | -3.27792 | 39453 ft | 498 kts | 97° |
| 2026-05-07 14:13 | 51.45555 | -3.22273 | 39162 ft | 498 kts | 97° |
| 2026-05-07 14:13 | 51.45218 | -3.16757 | 38879 ft | 497 kts | 97° |
| 2026-05-07 14:14 | 51.44879 | -3.11254 | 38265 ft | 498 kts | 97° |
| 2026-05-07 14:14 | 51.44540 | -3.05745 | 37912 ft | 497 kts | 97° |
| 2026-05-07 14:14 | 51.44199 | -3.00240 | 37470 ft | 493 kts | 97° |
| 2026-05-07 14:14 | 51.43858 | -2.94789 | 36751 ft | 491 kts | 97° |
| 2026-05-07 14:15 | 51.43514 | -2.89360 | 36024 ft | 489 kts | 97° |
| 2026-05-07 14:15 | 51.43169 | -2.83937 | 35260 ft | 487 kts | 97° |
| 2026-05-07 14:15 | 51.42835 | -2.78727 | 33968 ft | 498 kts | 97° |
| 2026-05-07 14:15 | 51.42470 | -2.73082 | 32660 ft | 505 kts | 97° |
| 2026-05-07 14:16 | 51.42110 | -2.67515 | 31777 ft | 501 kts | 97° |
| 2026-05-07 14:16 | 51.41748 | -2.61963 | 30837 ft | 499 kts | 97° |
| 2026-05-07 14:16 | 51.41383 | -2.56448 | 29823 ft | 498 kts | 97° |
| 2026-05-07 14:16 | 51.41017 | -2.50952 | 28854 ft | 494 kts | 97° |
| 2026-05-07 14:17 | 51.40656 | -2.45532 | 27924 ft | 489 kts | 97° |
| 2026-05-07 14:17 | 51.40292 | -2.40135 | 26987 ft | 485 kts | 97° |
| 2026-05-07 14:17 | 51.39926 | -2.34747 | 25484 ft | 489 kts | 97° |
| 2026-05-07 14:17 | 51.39560 | -2.29394 | 24028 ft | 471 kts | 97° |
| 2026-05-07 14:18 | 51.39232 | -2.24592 | 22575 ft | 443 kts | 97° |
| 2026-05-07 14:18 | 51.38903 | -2.19832 | 21369 ft | 415 kts | 98° |
| 2026-05-07 14:18 | 51.38598 | -2.15447 | 21031 ft | 372 kts | 98° |
| 2026-05-07 14:18 | 51.38328 | -2.11582 | 21026 ft | 348 kts | 98° |
| 2026-05-07 14:19 | 51.38043 | -2.07604 | 21024 ft | 372 kts | 98° |
| 2026-05-07 14:19 | 51.37744 | -2.03416 | 20938 ft | 382 kts | 98° |
| 2026-05-07 14:19 | 51.37451 | -1.99223 | 20694 ft | 370 kts | 98° |
| 2026-05-07 14:19 | 51.37171 | -1.95242 | 20666 ft | 352 kts | 98° |
| 2026-05-07 14:20 | 51.36897 | -1.91442 | 20612 ft | 336 kts | 98° |
| 2026-05-07 14:20 | 51.36629 | -1.87760 | 20029 ft | 327 kts | 98° |
| 2026-05-07 14:20 | 51.36366 | -1.84145 | 18874 ft | 328 kts | 98° |
| 2026-05-07 14:20 | 51.36107 | -1.80562 | 17875 ft | 321 kts | 98° |
| 2026-05-07 14:21 | 51.35851 | -1.77049 | 16809 ft | 314 kts | 99° |
| 2026-05-07 14:21 | 51.35600 | -1.73619 | 15799 ft | 307 kts | 99° |
| 2026-05-07 14:21 | 51.35353 | -1.70277 | 14823 ft | 300 kts | 99° |
| 2026-05-07 14:21 | 51.35113 | -1.67029 | 14259 ft | 287 kts | 99° |
| 2026-05-07 14:22 | 51.34878 | -1.63868 | 14245 ft | 293 kts | 99° |
| 2026-05-07 14:22 | 51.34636 | -1.60629 | 14256 ft | 293 kts | 99° |
| 2026-05-07 14:22 | 51.34418 | -1.57368 | 14245 ft | 296 kts | 94° |
| 2026-05-07 14:22 | 51.34753 | -1.54132 | 14233 ft | 293 kts | 77° |
| 2026-05-07 14:23 | 51.35290 | -1.50908 | 14238 ft | 304 kts | 77° |
| 2026-05-07 14:23 | 51.35957 | -1.47728 | 14218 ft | 302 kts | 61° |
| 2026-05-07 14:23 | 51.37457 | -1.45411 | 14237 ft | 305 kts | 29° |
| 2026-05-07 14:23 | 51.39452 | -1.44246 | 14233 ft | 306 kts | 15° |
| 2026-05-07 14:24 | 51.41527 | -1.43507 | 14228 ft | 305 kts | 7° |
| 2026-05-07 14:24 | 51.43567 | -1.44039 | 14235 ft | 303 kts | 333° |
| 2026-05-07 14:24 | 51.45133 | -1.46210 | 14236 ft | 299 kts | 300° |
| 2026-05-07 14:24 | 51.45893 | -1.49270 | 14232 ft | 295 kts | 283° |
| 2026-05-07 14:25 | 51.46315 | -1.52533 | 14232 ft | 294 kts | 277° |
| 2026-05-07 14:25 | 51.46617 | -1.55724 | 14230 ft | 294 kts | 276° |
| 2026-05-07 14:25 | 51.46898 | -1.58978 | 14234 ft | 295 kts | 275° |
| 2026-05-07 14:25 | 51.47173 | -1.62229 | 14230 ft | 294 kts | 275° |
| 2026-05-07 14:26 | 51.47446 | -1.65479 | 14231 ft | 295 kts | 275° |
| 2026-05-07 14:26 | 51.47719 | -1.68743 | 14230 ft | 294 kts | 275° |
| 2026-05-07 14:26 | 51.47990 | -1.71995 | 14234 ft | 294 kts | 275° |
| 2026-05-07 14:26 | 51.48261 | -1.75247 | 14236 ft | 294 kts | 275° |
| 2026-05-07 14:27 | 51.48531 | -1.78499 | 14234 ft | 294 kts | 275° |
| 2026-05-07 14:27 | 51.48801 | -1.81742 | 14234 ft | 293 kts | 275° |
| 2026-05-07 14:27 | 51.49020 | -1.84990 | 14225 ft | 291 kts | 267° |
| 2026-05-07 14:27 | 51.48405 | -1.87999 | 14240 ft | 286 kts | 233° |
| 2026-05-07 14:28 | 51.46879 | -1.89941 | 14245 ft | 283 kts | 202° |
| 2026-05-07 14:28 | 51.44991 | -1.90825 | 14245 ft | 283 kts | 192° |
| 2026-05-07 14:28 | 51.43050 | -1.91416 | 14245 ft | 283 kts | 190° |
| 2026-05-07 14:28 | 51.41132 | -1.91930 | 14242 ft | 282 kts | 189° |
| 2026-05-07 14:29 | 51.39199 | -1.92397 | 14238 ft | 281 kts | 186° |
| 2026-05-07 14:29 | 51.37290 | -1.91782 | 14235 ft | 286 kts | 152° |
| 2026-05-07 14:29 | 51.35899 | -1.89538 | 14249 ft | 290 kts | 120° |
| 2026-05-07 14:29 | 51.35327 | -1.86423 | 14245 ft | 295 kts | 101° |
| 2026-05-07 14:30 | 51.35086 | -1.83161 | 14245 ft | 294 kts | 97° |
| 2026-05-07 14:30 | 51.34929 | -1.80018 | 14230 ft | 272 kts | 96° |
| 2026-05-07 14:30 | 51.34792 | -1.76953 | 14232 ft | 286 kts | 96° |
| 2026-05-07 14:30 | 51.34647 | -1.73725 | 14244 ft | 293 kts | 96° |
| 2026-05-07 14:31 | 51.34500 | -1.70471 | 14241 ft | 295 kts | 96° |
| 2026-05-07 14:31 | 51.34354 | -1.67242 | 13772 ft | 290 kts | 96° |
| 2026-05-07 14:31 | 51.34206 | -1.64009 | 12986 ft | 290 kts | 96° |
| 2026-05-07 14:31 | 51.34085 | -1.60810 | 12320 ft | 287 kts | 94° |
| 2026-05-07 14:32 | 51.34147 | -1.57635 | 11644 ft | 286 kts | 85° |
| 2026-05-07 14:32 | 51.34561 | -1.54542 | 10989 ft | 284 kts | 75° |
| 2026-05-07 14:32 | 51.35165 | -1.51543 | 10349 ft | 282 kts | 73° |
| 2026-05-07 14:32 | 51.35719 | -1.48553 | 9687 ft | 278 kts | 76° |
| 2026-05-07 14:33 | 51.36186 | -1.45612 | 9383 ft | 269 kts | 77° |
| 2026-05-07 14:33 | 51.36652 | -1.42679 | 9109 ft | 274 kts | 77° |
| 2026-05-07 14:33 | 51.37141 | -1.39741 | 8838 ft | 273 kts | 76° |
| 2026-05-07 14:33 | 51.37624 | -1.36856 | 8557 ft | 262 kts | 76° |
| 2026-05-07 14:34 | 51.38077 | -1.34118 | 8286 ft | 246 kts | 77° |
| 2026-05-07 14:34 | 51.38492 | -1.31587 | 8017 ft | 228 kts | 77° |
| 2026-05-07 14:34 | 51.38876 | -1.29256 | 7774 ft | 206 kts | 77° |
| 2026-05-07 14:34 | 51.39226 | -1.27121 | 7576 ft | 197 kts | 77° |
| 2026-05-07 14:35 | 51.39574 | -1.24989 | 7389 ft | 204 kts | 76° |
| 2026-05-07 14:35 | 51.39934 | -1.22792 | 7196 ft | 197 kts | 76° |
| 2026-05-07 14:35 | 51.40274 | -1.20719 | 6985 ft | 188 kts | 77° |
| 2026-05-07 14:35 | 51.40595 | -1.18748 | 6789 ft | 179 kts | 76° |
| 2026-05-07 14:36 | 51.40899 | -1.16885 | 6614 ft | 171 kts | 76° |
| 2026-05-07 14:36 | 51.41200 | -1.15042 | 6430 ft | 171 kts | 76° |
| 2026-05-07 14:36 | 51.41503 | -1.13181 | 6249 ft | 174 kts | 76° |
| 2026-05-07 14:36 | 51.41800 | -1.11352 | 6067 ft | 167 kts | 76° |
| 2026-05-07 14:37 | 51.42094 | -1.09542 | 5879 ft | 170 kts | 76° |
| 2026-05-07 14:37 | 51.42688 | -1.05883 | 5516 ft | 166 kts | 76° |
| 2026-05-07 14:37 | 51.42986 | -1.04039 | 5343 ft | 171 kts | 76° |
| 2026-05-07 14:38 | 51.43280 | -1.02230 | 5149 ft | 167 kts | 76° |
| 2026-05-07 14:38 | 51.43573 | -1.00414 | 4985 ft | 169 kts | 76° |
| 2026-05-07 14:38 | 51.43869 | -0.98581 | 4786 ft | 167 kts | 76° |
| 2026-05-07 14:38 | 51.44158 | -0.96789 | 4617 ft | 169 kts | 76° |
| 2026-05-07 14:39 | 51.44448 | -0.94983 | 4431 ft | 163 kts | 76° |
| 2026-05-07 14:39 | 51.44735 | -0.93203 | 4263 ft | 167 kts | 76° |
| 2026-05-07 14:39 | 51.45026 | -0.91394 | 4080 ft | 168 kts | 76° |
| 2026-05-07 14:39 | 51.45311 | -0.89618 | 3906 ft | 163 kts | 76° |
| 2026-05-07 14:40 | 51.45595 | -0.87847 | 3800 ft | 168 kts | 76° |
| 2026-05-07 14:40 | 51.45896 | -0.85968 | 3705 ft | 175 kts | 76° |
| 2026-05-07 14:40 | 51.46199 | -0.84075 | 3613 ft | 175 kts | 76° |
| 2026-05-07 14:40 | 51.46485 | -0.82287 | 3507 ft | 169 kts | 76° |
| 2026-05-07 14:41 | 51.46777 | -0.80456 | 3412 ft | 176 kts | 76° |
| 2026-05-07 14:41 | 51.47072 | -0.78610 | 3296 ft | 169 kts | 76° |
| 2026-05-07 14:41 | 51.47435 | -0.76787 | 3204 ft | 173 kts | 70° |
| 2026-05-07 14:41 | 51.47615 | -0.74947 | 3082 ft | 171 kts | 90° |
| 2026-05-07 14:42 | 51.47649 | -0.73079 | 2989 ft | 170 kts | 89° |
| 2026-05-07 14:42 | 51.47670 | -0.71166 | 2883 ft | 166 kts | 90° |
| 2026-05-07 14:42 | 51.47678 | -0.69393 | 2748 ft | 152 kts | 91° |
| 2026-05-07 14:42 | 51.47683 | -0.67774 | 2731 ft | 144 kts | 91° |
| 2026-05-07 14:43 | 51.47689 | -0.66095 | 2722 ft | 152 kts | 90° |
| 2026-05-07 14:43 | 51.47695 | -0.64403 | 2729 ft | 155 kts | 91° |
| 2026-05-07 14:43 | 51.47701 | -0.62674 | 2728 ft | 154 kts | 90° |
| 2026-05-07 14:43 | 51.47707 | -0.60962 | 2742 ft | 153 kts | 90° |
| 2026-05-07 14:44 | 51.47709 | -0.59224 | 2680 ft | 160 kts | 90° |
| 2026-05-07 14:44 | 51.47715 | -0.57444 | 2271 ft | 158 kts | 90° |
| 2026-05-07 14:44 | 51.47718 | -0.55715 | 1863 ft | 153 kts | 91° |
| 2026-05-07 14:44 | 51.47727 | -0.54015 | 1463 ft | 151 kts | 90° |
| 2026-05-07 14:45 | 51.47737 | -0.52345 | 1104 ft | 149 kts | 90° |
| 2026-05-07 14:45 | 51.47742 | -0.50702 | 758 ft | 147 kts | 90° |
| 2026-05-07 14:45 | 51.47748 | -0.49220 | 414 ft | 144 kts | 89° |
| 2026-05-07 14:45 | 51.47753 | -0.47634 | 95 ft | 137 kts | 90° |
| 2026-05-07 14:46 | 51.47758 | -0.46461 | 97 ft | 86 kts | 89° |
| 2026-05-07 14:46 | 51.47762 | -0.45671 | 90 ft | 61 kts | 90° |
| 2026-05-07 14:46 | 51.47764 | -0.44995 | 95 ft | 60 kts | 90° |
| 2026-05-07 14:46 | 51.47720 | -0.44445 | 95 ft | 36 kts | 115° |
| 2026-05-07 14:47 | 51.47655 | -0.44247 | 95 ft | 10 kts | 140° |
| 2026-05-07 14:47 | 51.47649 | -0.44240 | 95 ft | 0 kts | 146° |
| 2026-05-07 14:47 | 51.47644 | -0.44236 | 95 ft | 0 kts | 146° |
| 2026-05-07 14:48 | 51.47641 | -0.44232 | 95 ft | 2 kts | 147° |
| 2026-05-07 14:48 | 51.47631 | -0.44225 | 96 ft | 2 kts | 156° |
| 2026-05-07 14:48 | 51.47612 | -0.44217 | 94 ft | 1 kts | 184° |
| 2026-05-07 14:48 | 51.47602 | -0.44228 | 96 ft | 3 kts | 224° |
| 2026-05-07 14:49 | 51.47593 | -0.44286 | 94 ft | 9 kts | 266° |
| 2026-05-07 14:49 | 51.47598 | -0.44388 | 92 ft | 8 kts | 274° |
| 2026-05-07 14:49 | 51.47599 | -0.44461 | 92 ft | 0 kts | 270° |
| 2026-05-07 14:49 | 51.47599 | -0.44467 | 92 ft | 2 kts | 270° |
| 2026-05-07 14:50 | 51.47599 | -0.44508 | 92 ft | 5 kts | 270° |
| 2026-05-07 14:50 | 51.47599 | -0.44533 | 92 ft | 0 kts | 270° |
| 2026-05-07 14:51 | 51.47599 | -0.44539 | 92 ft | 2 kts | 270° |
| 2026-05-07 14:51 | 51.47599 | -0.44565 | 92 ft | 5 kts | 270° |
| 2026-05-07 14:51 | 51.47599 | -0.44605 | 92 ft | 5 kts | 267° |
| 2026-05-07 14:51 | 51.47587 | -0.44640 | 96 ft | 4 kts | 224° |
| 2026-05-07 14:52 | 51.47559 | -0.44656 | 95 ft | 6 kts | 190° |
| 2026-05-07 14:52 | 51.47518 | -0.44690 | 96 ft | 7 kts | 234° |
| 2026-05-07 14:52 | 51.47509 | -0.44766 | 95 ft | 5 kts | 270° |
| 2026-05-07 14:52 | 51.47509 | -0.44843 | 95 ft | 9 kts | 270° |
| 2026-05-07 14:53 | 51.47510 | -0.44960 | 95 ft | 11 kts | 270° |
| 2026-05-07 14:53 | 51.47510 | -0.45102 | 95 ft | 14 kts | 270° |
| 2026-05-07 14:53 | 51.47509 | -0.45239 | 95 ft | 15 kts | 270° |
| 2026-05-07 14:53 | 51.47509 | -0.45385 | 95 ft | 12 kts | 270° |
| 2026-05-07 14:54 | 51.47509 | -0.45535 | 95 ft | 15 kts | 270° |
| 2026-05-07 14:54 | 51.47509 | -0.45702 | 95 ft | 15 kts | 273° |
| 2026-05-07 14:54 | 51.47518 | -0.45869 | 92 ft | 12 kts | 271° |
| 2026-05-07 14:54 | 51.47518 | -0.46009 | 92 ft | 13 kts | 269° |
| 2026-05-07 14:55 | 51.47514 | -0.46136 | 92 ft | 10 kts | 255° |
| 2026-05-07 14:55 | 51.47480 | -0.46174 | 94 ft | 4 kts | 174° |
| 2026-05-07 14:55 | 51.47449 | -0.46152 | 94 ft | 6 kts | 149° |
| 2026-05-07 14:55 | 51.47412 | -0.46115 | 96 ft | 4 kts | 146° |
| 2026-05-07 14:56 | 51.47396 | -0.46104 | 95 ft | 1 kts | 172° |
| 2026-05-07 14:56 | 51.47382 | -0.46109 | 94 ft | 3 kts | 198° |
| 2026-05-07 14:56 | 51.47359 | -0.46135 | 94 ft | 4 kts | 231° |
| 2026-05-07 14:56 | 51.47352 | -0.46155 | 94 ft | 2 kts | 241° |
| 2026-05-07 14:57 | 51.47346 | -0.46172 | 94 ft | 0 kts | 239° |
| 2026-05-07 14:57 | 51.47344 | -0.46178 | 94 ft | 0 kts | 240° |